Time,TemperatureF,DewpointF,PressureIn,WindDirection,WindDirectionDegrees,WindSpeedMPH,WindSpeedGustMPH,Humidity,HourlyPrecipIn,Conditions,Clouds,dailyrainin,SoftwareType,DateUTC
2013-02-09 00:00:00,20.2,4.9,29.28,North,4,7.0,10.0,51,0.00,CLR,,0.00,WeatherDisplay:10.37,2013-02-09 05:00:00,
2013-02-09 00:05:00,19.9,4.7,29.29,North,0,5.8,5.8,51,0.00,CLR,,0.00,WeatherDisplay:10.37,2013-02-09 05:05:00,
2013-02-09 00:10:00,20.1,5.3,29.29,NNE,22,5.8,5.8,52,0.00,CLR,,0.00,WeatherDisplay:10.37,2013-02-09 05:10:00,
2013-02-09 00:11:00,20.1,5.3,29.29,NNW,338,5.8,5.8,52,0.00,CLR,,0.00,WeatherDisplay:10.37,2013-02-09 05:11:00,
2013-02-09 00:15:00,19.9,5.1,29.29,NNE,22,12.5,12.5,52,0.00,CLR,,0.00,WeatherDisplay:10.37,2013-02-09 05:15:00,
2013-02-09 00:16:00,19.9,5.1,29.29,NNE,22,10.5,10.5,52,0.00,CLR,,0.00,WeatherDisplay:10.37,2013-02-09 05:16:00,
2013-02-09 00:20:00,19.8,4.9,29.29,NNW,338,5.6,5.6,52,0.00,CLR,,0.00,WeatherDisplay:10.37,2013-02-09 05:20:00,
2013-02-09 00:21:00,19.8,4.9,29.29,NNW,338,4.6,4.6,52,0.00,CLR,,0.00,WeatherDisplay:10.37,2013-02-09 05:21:00,
2013-02-09 00:22:00,19.9,5.1,29.29,NNW,338,5.8,5.8,52,0.00,CLR,,0.00,WeatherDisplay:10.37,2013-02-09 05:22:00,
2013-02-09 00:25:00,19.8,4.9,29.29,North,0,5.8,5.8,52,0.00,CLR,,0.00,WeatherDisplay:10.37,2013-02-09 05:25:00,
2013-02-09 00:26:00,19.8,4.9,29.29,North,0,5.8,5.8,52,0.00,CLR,,0.00,WeatherDisplay:10.37,2013-02-09 05:26:00,
2013-02-09 00:27:00,19.6,4.8,29.29,North,0,8.1,8.1,52,0.00,CLR,,0.00,WeatherDisplay:10.37,2013-02-09 05:27:00,
2013-02-09 00:30:00,19.6,4.8,29.29,NNW,338,8.1,8.1,52,0.00,CLR,,0.00,WeatherDisplay:10.37,2013-02-09 05:30:00,
2013-02-09 00:31:00,19.6,4.8,29.29,North,0,8.1,8.1,52,0.00,CLR,,0.00,WeatherDisplay:10.37,2013-02-09 05:31:00,
2013-02-09 00:32:00,19.6,4.8,29.29,NNW,338,5.8,5.8,52,0.00,CLR,,0.00,WeatherDisplay:10.37,2013-02-09 05:32:00,
2013-02-09 00:36:00,19.4,4.6,29.29,NNW,338,3.5,3.5,52,0.00,CLR,,0.00,WeatherDisplay:10.37,2013-02-09 05:36:00,
2013-02-09 00:38:00,19.4,4.6,29.29,North,0,8.1,8.1,52,0.00,CLR,,0.00,WeatherDisplay:10.37,2013-02-09 05:38:00,
2013-02-09 00:41:00,19.2,4.4,29.29,NNE,22,6.9,6.9,52,0.00,CLR,,0.00,WeatherDisplay:10.37,2013-02-09 05:41:00,
2013-02-09 00:43:00,19.2,4.4,29.29,NNE,22,5.8,5.8,52,0.00,CLR,,0.00,WeatherDisplay:10.37,2013-02-09 05:43:00,
2013-02-09 00:46:00,19.2,4.4,29.29,NNW,338,5.9,5.9,52,0.00,CLR,,0.00,WeatherDisplay:10.37,2013-02-09 05:46:00,
2013-02-09 00:48:00,19.2,4.4,29.29,NNE,22,5.8,5.8,52,0.00,CLR,,0.00,WeatherDisplay:10.37,2013-02-09 05:48:00,
2013-02-09 00:51:00,19.0,4.3,29.29,North,0,4.3,4.3,52,0.00,CLR,,0.00,WeatherDisplay:10.37,2013-02-09 05:51:00,
2013-02-09 00:52:00,19.0,4.3,29.29,North,0,4.3,4.3,52,0.00,CLR,,0.00,WeatherDisplay:10.37,2013-02-09 05:52:00,
2013-02-09 00:53:00,19.0,4.3,29.29,NNE,22,6.9,6.9,52,0.00,CLR,,0.00,WeatherDisplay:10.37,2013-02-09 05:53:00,
2013-02-09 00:57:00,19.0,4.3,29.29,NNW,338,5.6,5.6,52,0.00,CLR,,0.00,WeatherDisplay:10.37,2013-02-09 05:57:00,
2013-02-09 00:58:00,19.0,4.3,29.29,NNE,22,6.9,6.9,52,0.00,CLR,,0.00,WeatherDisplay:10.37,2013-02-09 05:58:00,
2013-02-09 01:02:00,19.0,4.3,29.29,NNE,22,7.1,7.1,52,0.00,CLR,,0.00,WeatherDisplay:10.37,2013-02-09 06:02:00,
2013-02-09 01:03:00,19.0,4.3,29.29,NNE,22,6.9,6.9,52,0.00,CLR,,0.00,WeatherDisplay:10.37,2013-02-09 06:03:00,
2013-02-09 01:07:00,19.0,4.3,29.29,NNE,22,5.8,5.8,52,0.00,CLR,,0.00,WeatherDisplay:10.37,2013-02-09 06:07:00,
2013-02-09 01:08:00,19.0,4.3,29.29,NNW,338,5.8,5.8,52,0.00,CLR,,0.00,WeatherDisplay:10.37,2013-02-09 06:08:00,
2013-02-09 01:12:00,18.7,3.9,29.29,NNE,22,6.0,6.0,52,0.00,CLR,,0.00,WeatherDisplay:10.37,2013-02-09 06:12:00,
2013-02-09 01:14:00,18.7,3.9,29.29,NNE,22,7.4,7.4,52,0.00,CLR,,0.00,WeatherDisplay:10.37,2013-02-09 06:14:00,
2013-02-09 01:17:00,18.7,3.9,29.29,North,0,3.8,3.8,52,0.00,CLR,,0.00,WeatherDisplay:10.37,2013-02-09 06:17:00,
2013-02-09 01:18:00,18.7,3.9,29.29,NNW,338,4.7,4.7,52,0.00,CLR,,0.00,WeatherDisplay:10.37,2013-02-09 06:18:00,
2013-02-09 01:19:00,18.5,3.8,29.29,NNW,338,4.9,4.9,52,0.00,CLR,,0.00,WeatherDisplay:10.37,2013-02-09 06:19:00,
2013-02-09 01:22:00,18.5,3.8,29.29,North,0,5.4,5.4,52,0.00,CLR,,0.00,WeatherDisplay:10.37,2013-02-09 06:22:00,
2013-02-09 01:23:00,18.5,3.8,29.29,NNE,22,4.6,4.6,52,0.00,CLR,,0.00,WeatherDisplay:10.37,2013-02-09 06:23:00,
2013-02-09 01:24:00,18.5,3.8,29.29,NNE,22,5.8,5.8,52,0.00,CLR,,0.00,WeatherDisplay:10.37,2013-02-09 06:24:00,
2013-02-09 01:27:00,18.3,3.6,29.29,North,0,4.3,4.3,52,0.00,CLR,,0.00,WeatherDisplay:10.37,2013-02-09 06:27:00,
2013-02-09 01:28:00,18.3,3.6,29.29,NNW,338,4.6,4.6,52,0.00,CLR,,0.00,WeatherDisplay:10.37,2013-02-09 06:28:00,
2013-02-09 01:29:00,18.1,3.4,29.29,North,0,4.6,4.6,52,0.00,CLR,,0.00,WeatherDisplay:10.37,2013-02-09 06:29:00,
2013-02-09 01:32:00,17.8,2.7,29.29,North,0,4.6,4.6,51,0.00,CLR,,0.00,WeatherDisplay:10.37,2013-02-09 06:32:00,
2013-02-09 01:33:00,17.8,2.7,29.29,NNW,338,2.6,2.6,51,0.00,CLR,,0.00,WeatherDisplay:10.37,2013-02-09 06:33:00,
2013-02-09 01:34:00,17.8,2.7,29.29,NNW,338,2.3,0.0,51,0.00,CLR,,0.00,WeatherDisplay:10.37,2013-02-09 06:34:00,
2013-02-09 01:37:00,17.6,2.5,29.29,NNE,22,2.3,2.3,51,0.00,CLR,,0.00,WeatherDisplay:10.37,2013-02-09 06:37:00,
2013-02-09 01:38:00,17.6,2.5,29.29,North,0,1.1,0.0,51,0.00,CLR,,0.00,WeatherDisplay:10.37,2013-02-09 06:38:00,
2013-02-09 01:39:00,17.6,2.5,29.29,NNW,338,2.3,2.3,51,0.00,CLR,,0.00,WeatherDisplay:10.37,2013-02-09 06:39:00,
2013-02-09 01:40:00,17.6,2.5,29.29,NNW,338,2.3,2.3,51,0.00,CLR,,0.00,WeatherDisplay:10.37,2013-02-09 06:40:00,
2013-02-09 01:42:00,17.4,2.3,29.29,NNW,338,3.5,0.0,51,0.00,CLR,,0.00,WeatherDisplay:10.37,2013-02-09 06:42:00,
2013-02-09 01:43:00,17.2,2.2,29.29,NNW,338,2.4,2.4,51,0.00,CLR,,0.00,WeatherDisplay:10.37,2013-02-09 06:43:00,
2013-02-09 01:44:00,17.2,2.2,29.29,NNW,338,5.4,5.4,51,0.00,CLR,,0.00,WeatherDisplay:10.37,2013-02-09 06:44:00,
2013-02-09 01:45:00,17.2,2.2,29.29,North,0,5.8,5.8,51,0.00,CLR,,0.00,WeatherDisplay:10.37,2013-02-09 06:45:00,
2013-02-09 01:48:00,17.2,2.2,29.29,North,0,4.6,4.6,51,0.00,CLR,,0.00,WeatherDisplay:10.37,2013-02-09 06:48:00,
2013-02-09 01:49:00,17.1,2.0,29.29,NNW,338,2.6,2.6,51,0.00,CLR,,0.00,WeatherDisplay:10.37,2013-02-09 06:49:00,
2013-02-09 01:50:00,16.9,1.8,29.29,NNW,338,3.5,3.5,51,0.00,CLR,,0.00,WeatherDisplay:10.37,2013-02-09 06:50:00,
2013-02-09 01:53:00,16.9,1.8,29.29,NW,315,3.5,3.5,51,0.00,CLR,,0.00,WeatherDisplay:10.37,2013-02-09 06:53:00,
2013-02-09 01:54:00,16.7,1.7,29.29,NNW,338,3.5,3.5,51,0.00,CLR,,0.00,WeatherDisplay:10.37,2013-02-09 06:54:00,
2013-02-09 01:55:00,16.7,1.7,29.29,NNW,338,3.5,3.5,51,0.00,CLR,,0.00,WeatherDisplay:10.37,2013-02-09 06:55:00,
2013-02-09 01:58:00,16.5,1.5,29.29,NW,315,3.5,3.5,51,0.00,CLR,,0.00,WeatherDisplay:10.37,2013-02-09 06:58:00,
2013-02-09 02:00:00,16.3,1.3,29.29,NNW,338,2.3,0.0,51,0.00,CLR,,0.00,WeatherDisplay:10.37,2013-02-09 07:00:00,
2013-02-09 02:03:00,16.2,1.2,29.29,NNW,338,4.6,4.6,51,0.00,CLR,,0.00,WeatherDisplay:10.37,2013-02-09 07:03:00,
2013-02-09 02:05:00,16.0,1.0,29.29,North,0,4.6,0.0,51,0.00,CLR,,0.00,WeatherDisplay:10.37,2013-02-09 07:05:00,
2013-02-09 02:09:00,15.8,1.3,29.29,NNW,338,4.6,4.6,52,0.00,CLR,,0.00,WeatherDisplay:10.37,2013-02-09 07:09:00,
2013-02-09 02:10:00,15.8,1.3,29.29,NNW,338,4.0,4.0,52,0.00,CLR,,0.00,WeatherDisplay:10.37,2013-02-09 07:10:00,
2013-02-09 02:14:00,15.8,1.3,29.29,North,0,5.8,5.8,52,0.00,CLR,,0.00,WeatherDisplay:10.37,2013-02-09 07:14:00,
2013-02-09 02:15:00,15.8,1.7,29.29,NNW,338,5.8,5.8,53,0.00,CLR,,0.00,WeatherDisplay:10.37,2013-02-09 07:15:00,
2013-02-09 02:19:00,15.4,1.3,29.29,North,0,4.6,4.6,53,0.00,CLR,,0.00,WeatherDisplay:10.37,2013-02-09 07:19:00,
2013-02-09 02:20:00,15.4,1.3,29.29,NNW,338,4.6,4.6,53,0.00,CLR,,0.00,WeatherDisplay:10.37,2013-02-09 07:20:00,
2013-02-09 02:21:00,15.3,1.2,29.29,NNE,22,2.3,2.3,53,0.00,CLR,,0.00,WeatherDisplay:10.37,2013-02-09 07:21:00,
2013-02-09 02:24:00,15.3,1.2,29.29,North,0,4.6,0.0,53,0.00,CLR,,0.00,WeatherDisplay:10.37,2013-02-09 07:24:00,
2013-02-09 02:25:00,15.3,1.2,29.29,North,357,0.0,6.0,53,0.00,CLR,,0.00,WeatherDisplay:10.37,2013-02-09 07:25:00,
2013-02-09 02:26:00,15.3,1.2,29.29,NW,315,8.1,8.1,53,0.00,CLR,,0.00,WeatherDisplay:10.37,2013-02-09 07:26:00,
2013-02-09 02:29:00,15.1,1.0,29.29,NNW,338,5.8,5.8,53,0.00,CLR,,0.00,WeatherDisplay:10.37,2013-02-09 07:29:00,
2013-02-09 02:30:00,15.1,1.0,29.29,NW,315,6.0,6.0,53,0.00,CLR,,0.00,WeatherDisplay:10.37,2013-02-09 07:30:00,
2013-02-09 02:31:00,15.1,1.0,29.29,NNE,22,5.8,5.9,53,0.00,CLR,,0.00,WeatherDisplay:10.37,2013-02-09 07:31:00,
2013-02-09 02:34:00,14.9,1.2,29.29,North,0,4.3,4.3,54,0.00,CLR,,0.00,WeatherDisplay:10.37,2013-02-09 07:34:00,
2013-02-09 02:35:00,14.9,1.2,29.29,NNE,22,4.9,4.9,54,0.00,CLR,,0.00,WeatherDisplay:10.37,2013-02-09 07:35:00,
2013-02-09 02:36:00,14.9,1.2,29.29,NNE,22,9.2,9.2,54,0.00,CLR,,0.00,WeatherDisplay:10.37,2013-02-09 07:36:00,
2013-02-09 02:39:00,14.7,1.1,29.29,North,0,7.4,7.4,54,0.00,CLR,,0.00,WeatherDisplay:10.37,2013-02-09 07:39:00,
2013-02-09 02:40:00,14.7,1.1,29.29,NNE,22,6.9,6.9,54,0.00,CLR,,0.00,WeatherDisplay:10.37,2013-02-09 07:40:00,
2013-02-09 02:41:00,14.7,1.1,29.29,NNE,22,6.0,6.0,54,0.00,CLR,,0.00,WeatherDisplay:10.37,2013-02-09 07:41:00,
2013-02-09 02:44:00,14.5,0.9,29.29,NNW,338,4.6,4.6,54,0.00,CLR,,0.00,WeatherDisplay:10.37,2013-02-09 07:44:00,
2013-02-09 02:45:00,14.5,0.9,29.29,NW,315,4.6,4.6,54,0.00,CLR,,0.00,WeatherDisplay:10.37,2013-02-09 07:45:00,
2013-02-09 02:47:00,14.5,0.9,29.29,NNW,338,8.7,8.7,54,0.00,CLR,,0.00,WeatherDisplay:10.37,2013-02-09 07:47:00,
2013-02-09 02:49:00,14.5,0.9,29.29,NNE,22,5.8,5.8,54,0.00,CLR,,0.00,WeatherDisplay:10.37,2013-02-09 07:49:00,
2013-02-09 02:50:00,14.5,0.9,29.29,NNE,22,6.2,6.2,54,0.00,CLR,,0.00,WeatherDisplay:10.37,2013-02-09 07:50:00,
2013-02-09 02:52:00,14.4,0.7,29.29,NNW,338,6.9,6.9,54,0.00,CLR,,0.00,WeatherDisplay:10.37,2013-02-09 07:52:00,
2013-02-09 02:54:00,14.4,0.7,29.29,NNW,338,6.9,6.9,54,0.00,CLR,,0.00,WeatherDisplay:10.37,2013-02-09 07:54:00,
2013-02-09 02:55:00,14.4,0.7,29.29,NNW,338,5.8,5.8,54,0.00,CLR,,0.00,WeatherDisplay:10.37,2013-02-09 07:55:00,
2013-02-09 02:57:00,14.2,0.6,29.29,North,0,5.8,5.8,54,0.00,CLR,,0.00,WeatherDisplay:10.37,2013-02-09 07:57:00,
2013-02-09 02:59:00,14.2,0.9,29.29,NNE,22,6.9,6.9,55,0.00,CLR,,0.00,WeatherDisplay:10.37,2013-02-09 07:59:00,
2013-02-09 03:00:00,14.2,0.9,29.29,NNW,338,6.9,6.9,55,0.00,CLR,,0.00,WeatherDisplay:10.37,2013-02-09 08:00:00,
2013-02-09 03:01:00,14.2,0.9,29.29,NNW,338,6.9,6.9,55,0.00,CLR,,0.00,WeatherDisplay:10.37,2013-02-09 08:01:00,
2013-02-09 03:02:00,14.0,0.8,29.29,NNE,22,4.6,4.6,55,0.00,CLR,,0.00,WeatherDisplay:10.37,2013-02-09 08:02:00,
2013-02-09 03:05:00,14.0,0.8,29.29,NNE,22,5.8,5.8,55,0.00,CLR,,0.00,WeatherDisplay:10.37,2013-02-09 08:05:00,
2013-02-09 03:06:00,13.8,0.6,29.29,North,0,4.9,4.9,55,0.00,CLR,,0.00,WeatherDisplay:10.37,2013-02-09 08:06:00,
2013-02-09 03:07:00,13.8,0.6,29.29,North,0,4.6,4.7,55,0.00,CLR,,0.00,WeatherDisplay:10.37,2013-02-09 08:07:00,
2013-02-09 03:10:00,13.8,0.6,29.29,NNE,22,4.6,4.6,55,0.00,CLR,,0.00,WeatherDisplay:10.37,2013-02-09 08:10:00,
2013-02-09 03:11:00,13.8,0.6,29.29,NNE,22,4.7,4.7,55,0.00,CLR,,0.00,WeatherDisplay:10.37,2013-02-09 08:11:00,
2013-02-09 03:12:00,13.6,0.4,29.29,NNE,22,4.6,4.6,55,0.00,CLR,,0.00,WeatherDisplay:10.37,2013-02-09 08:12:00,
2013-02-09 03:15:00,13.6,0.4,29.32,NNW,338,5.8,5.8,55,0.00,CLR,,0.00,WeatherDisplay:10.37,2013-02-09 08:15:00,
2013-02-09 03:16:00,13.6,0.4,29.32,NNE,22,4.6,4.6,55,0.00,CLR,,0.00,WeatherDisplay:10.37,2013-02-09 08:16:00,
2013-02-09 03:18:00,13.6,0.4,29.32,NNE,22,3.5,3.5,55,0.00,CLR,,0.00,WeatherDisplay:10.37,2013-02-09 08:18:00,
2013-02-09 03:20:00,13.5,0.3,29.32,NNW,338,4.6,4.6,55,0.00,CLR,,0.00,WeatherDisplay:10.37,2013-02-09 08:20:00,
2013-02-09 03:21:00,13.5,0.3,29.32,NNE,22,5.8,5.8,55,0.00,CLR,,0.00,WeatherDisplay:10.37,2013-02-09 08:21:00,
2013-02-09 03:23:00,13.3,0.1,29.32,NNE,22,4.6,4.6,55,0.00,CLR,,0.00,WeatherDisplay:10.37,2013-02-09 08:23:00,
2013-02-09 03:25:00,13.3,0.1,29.32,NNE,22,4.6,4.6,55,0.00,CLR,,0.00,WeatherDisplay:10.37,2013-02-09 08:25:00,
2013-02-09 03:26:00,13.3,0.1,29.32,NNE,22,3.5,0.0,55,0.00,CLR,,0.00,WeatherDisplay:10.37,2013-02-09 08:26:00,
2013-02-09 03:28:00,13.3,0.1,29.32,NNE,22,4.9,4.9,55,0.00,CLR,,0.00,WeatherDisplay:10.37,2013-02-09 08:28:00,
2013-02-09 03:30:00,13.3,0.1,29.32,NNE,22,6.0,6.0,55,0.00,CLR,,0.00,WeatherDisplay:10.37,2013-02-09 08:30:00,
2013-02-09 03:31:00,13.3,0.1,29.32,NNE,22,5.8,5.8,55,0.00,CLR,,0.00,WeatherDisplay:10.37,2013-02-09 08:31:00,
2013-02-09 03:33:00,13.1,-0.1,29.32,NNE,22,4.6,4.6,55,0.00,CLR,,0.00,WeatherDisplay:10.37,2013-02-09 08:33:00,
2013-02-09 03:35:00,12.9,-0.2,29.32,NNE,22,4.6,4.6,55,0.00,CLR,,0.00,WeatherDisplay:10.37,2013-02-09 08:35:00,
2013-02-09 03:36:00,12.9,-0.2,29.32,NNE,22,5.8,5.8,55,0.00,CLR,,0.00,WeatherDisplay:10.37,2013-02-09 08:36:00,
2013-02-09 03:38:00,12.9,-0.2,29.32,NNW,338,5.9,5.9,55,0.00,CLR,,0.00,WeatherDisplay:10.37,2013-02-09 08:38:00,
2013-02-09 03:40:00,12.7,-0.4,29.32,NNE,22,4.6,4.6,55,0.00,CLR,,0.00,WeatherDisplay:10.37,2013-02-09 08:40:00,
2013-02-09 03:41:00,12.7,-0.4,29.32,North,0,4.6,4.6,55,0.00,CLR,,0.00,WeatherDisplay:10.37,2013-02-09 08:41:00,
2013-02-09 03:42:00,12.7,-0.4,29.32,NNE,22,3.5,3.6,55,0.00,CLR,,0.00,WeatherDisplay:10.37,2013-02-09 08:42:00,
2013-02-09 03:43:00,12.7,-0.4,29.32,NNE,22,4.6,4.6,55,0.00,CLR,,0.00,WeatherDisplay:10.37,2013-02-09 08:43:00,
2013-02-09 03:46:00,12.6,-0.6,29.32,NNE,22,3.5,3.5,55,0.00,CLR,,0.00,WeatherDisplay:10.37,2013-02-09 08:46:00,
2013-02-09 03:47:00,12.6,-0.6,29.32,NNE,22,3.5,3.5,55,0.00,CLR,,0.00,WeatherDisplay:10.37,2013-02-09 08:47:00,
2013-02-09 03:49:00,12.6,-0.6,29.32,NNE,22,4.6,4.6,55,0.00,CLR,,0.00,WeatherDisplay:10.37,2013-02-09 08:49:00,
2013-02-09 03:51:00,12.6,-0.6,29.32,NNE,22,4.6,4.6,55,0.00,CLR,,0.00,WeatherDisplay:10.37,2013-02-09 08:51:00,
2013-02-09 03:52:00,12.6,-0.6,29.32,NNE,22,4.6,4.6,55,0.00,CLR,,0.00,WeatherDisplay:10.37,2013-02-09 08:52:00,
2013-02-09 03:54:00,12.6,-0.6,29.32,NNE,22,4.6,4.6,55,0.00,CLR,,0.00,WeatherDisplay:10.37,2013-02-09 08:54:00,
2013-02-09 03:56:00,12.6,-0.6,29.32,North,0,4.6,4.6,55,0.00,CLR,,0.00,WeatherDisplay:10.37,2013-02-09 08:56:00,
2013-02-09 03:57:00,12.6,-0.6,29.32,North,0,4.0,4.0,55,0.00,CLR,,0.00,WeatherDisplay:10.37,2013-02-09 08:57:00,
2013-02-09 03:59:00,12.6,-0.6,29.32,NNW,338,4.6,4.6,55,0.00,CLR,,0.00,WeatherDisplay:10.37,2013-02-09 08:59:00,
2013-02-09 04:01:00,12.2,-0.9,29.32,NNW,338,0.0,0.0,55,0.00,CLR,,0.00,WeatherDisplay:10.37,2013-02-09 09:01:00,
2013-02-09 04:02:00,12.2,-0.9,29.32,NNW,338,0.0,0.0,55,0.00,CLR,,0.00,WeatherDisplay:10.37,2013-02-09 09:02:00,
2013-02-09 04:04:00,12.0,-1.1,29.32,WNW,292,0.0,0.0,55,0.00,CLR,,0.00,WeatherDisplay:10.37,2013-02-09 09:04:00,
2013-02-09 04:06:00,12.0,-1.1,29.32,North,0,0.0,0.0,55,0.00,CLR,,0.00,WeatherDisplay:10.37,2013-02-09 09:06:00,
2013-02-09 04:07:00,12.0,-1.1,29.32,NNW,338,0.0,0.0,55,0.00,CLR,,0.00,WeatherDisplay:10.37,2013-02-09 09:07:00,
2013-02-09 04:09:00,12.0,-1.1,29.32,WNW,292,0.0,0.0,55,0.00,CLR,,0.00,WeatherDisplay:10.37,2013-02-09 09:09:00,
2013-02-09 04:11:00,12.0,-1.1,29.32,WNW,292,0.0,0.0,55,0.00,CLR,,0.00,WeatherDisplay:10.37,2013-02-09 09:11:00,
2013-02-09 04:12:00,12.0,-1.1,29.32,SSW,202,0.0,0.0,55,0.00,CLR,,0.00,WeatherDisplay:10.37,2013-02-09 09:12:00,
2013-02-09 04:15:00,12.0,-1.1,29.32,SSW,202,0.0,0.0,55,0.00,CLR,,0.00,WeatherDisplay:10.37,2013-02-09 09:15:00,
2013-02-09 04:16:00,12.0,-1.1,29.32,WSW,248,0.0,0.0,55,0.00,CLR,,0.00,WeatherDisplay:10.37,2013-02-09 09:16:00,
2013-02-09 04:17:00,12.0,-1.1,29.32,WNW,292,0.0,0.0,55,0.00,CLR,,0.00,WeatherDisplay:10.37,2013-02-09 09:17:00,
2013-02-09 04:20:00,12.0,-1.1,29.32,WNW,292,0.0,0.0,55,0.00,CLR,,0.00,WeatherDisplay:10.37,2013-02-09 09:20:00,
2013-02-09 04:21:00,12.0,-1.1,29.32,NNW,338,0.0,0.0,55,0.00,CLR,,0.00,WeatherDisplay:10.37,2013-02-09 09:21:00,
2013-02-09 04:22:00,12.0,-1.1,29.32,NNW,338,0.0,0.0,55,0.00,CLR,,0.00,WeatherDisplay:10.37,2013-02-09 09:22:00,
2013-02-09 04:25:00,12.0,-1.1,29.32,NNE,22,0.0,0.0,55,0.00,CLR,,0.00,WeatherDisplay:10.37,2013-02-09 09:25:00,
2013-02-09 04:27:00,12.0,-1.1,29.32,NNE,22,0.0,0.0,55,0.00,CLR,,0.00,WeatherDisplay:10.37,2013-02-09 09:27:00,
2013-02-09 04:28:00,12.0,-1.1,29.32,NNE,22,0.0,0.0,55,0.00,CLR,,0.00,WeatherDisplay:10.37,2013-02-09 09:28:00,
2013-02-09 04:30:00,12.0,-1.1,29.32,NNE,22,0.0,0.0,55,0.00,CLR,,0.00,WeatherDisplay:10.37,2013-02-09 09:30:00,
2013-02-09 04:32:00,12.0,-1.1,29.32,NNE,22,0.0,0.0,55,0.00,CLR,,0.00,WeatherDisplay:10.37,2013-02-09 09:32:00,
2013-02-09 04:33:00,11.8,-1.2,29.32,NNE,22,0.0,0.0,55,0.00,CLR,,0.00,WeatherDisplay:10.37,2013-02-09 09:33:00,
2013-02-09 04:35:00,11.8,-1.2,29.32,North,0,0.0,0.0,55,0.00,CLR,,0.00,WeatherDisplay:10.37,2013-02-09 09:35:00,
2013-02-09 04:37:00,11.8,-1.2,29.32,NNE,22,0.0,0.0,55,0.00,CLR,,0.00,WeatherDisplay:10.37,2013-02-09 09:37:00,
2013-02-09 04:38:00,11.8,-1.2,29.32,NNE,22,0.0,0.0,55,0.00,CLR,,0.00,WeatherDisplay:10.37,2013-02-09 09:38:00,
2013-02-09 04:40:00,11.8,-1.2,29.32,NNE,22,3.5,3.5,55,0.00,CLR,,0.00,WeatherDisplay:10.37,2013-02-09 09:40:00,
2013-02-09 04:43:00,11.8,-1.2,29.32,NNE,22,3.5,3.5,55,0.00,CLR,,0.00,WeatherDisplay:10.37,2013-02-09 09:43:00,
2013-02-09 04:45:00,11.8,-1.2,29.32,North,0,1.1,0.0,55,0.00,CLR,,0.00,WeatherDisplay:10.37,2013-02-09 09:45:00,
2013-02-09 04:48:00,11.7,-1.4,29.32,NNE,22,0.0,0.0,55,0.00,CLR,,0.00,WeatherDisplay:10.37,2013-02-09 09:48:00,
2013-02-09 04:50:00,11.5,-1.6,29.32,NNE,22,0.0,0.0,55,0.00,CLR,,0.00,WeatherDisplay:10.37,2013-02-09 09:50:00,
2013-02-09 04:53:00,11.3,-1.8,29.32,NNE,22,0.0,0.0,55,0.00,CLR,,0.00,WeatherDisplay:10.37,2013-02-09 09:53:00,
2013-02-09 04:55:00,11.3,-1.8,29.32,NNE,22,0.0,0.0,55,0.00,CLR,,0.00,WeatherDisplay:10.37,2013-02-09 09:55:00,
2013-02-09 04:58:00,11.3,-1.8,29.32,NNE,22,0.0,0.0,55,0.00,CLR,,0.00,WeatherDisplay:10.37,2013-02-09 09:58:00,
2013-02-09 04:59:00,11.3,-1.8,29.32,NNE,22,0.0,0.0,55,0.00,CLR,,0.00,WeatherDisplay:10.37,2013-02-09 09:59:00,
2013-02-09 05:00:00,11.1,-1.9,29.32,NNE,22,0.0,0.0,55,0.00,CLR,,0.00,WeatherDisplay:10.37,2013-02-09 10:00:00,
2013-02-09 05:03:00,11.1,-1.9,29.32,North,0,0.0,0.0,55,0.00,CLR,,0.00,WeatherDisplay:10.37,2013-02-09 10:03:00,
2013-02-09 05:04:00,11.1,-1.9,29.32,North,0,0.0,0.0,55,0.00,CLR,,0.00,WeatherDisplay:10.37,2013-02-09 10:04:00,
2013-02-09 05:06:00,11.1,-1.9,29.32,North,0,0.0,0.0,55,0.00,CLR,,0.00,WeatherDisplay:10.37,2013-02-09 10:06:00,
2013-02-09 05:08:00,10.9,-2.1,29.32,NW,315,0.0,0.0,55,0.00,CLR,,0.00,WeatherDisplay:10.37,2013-02-09 10:08:00,
2013-02-09 05:10:00,10.9,-2.1,29.32,WSW,248,0.0,0.0,55,0.00,CLR,,0.00,WeatherDisplay:10.37,2013-02-09 10:10:00,
2013-02-09 05:11:00,10.9,-2.1,29.32,West,270,0.0,0.0,55,0.00,CLR,,0.00,WeatherDisplay:10.37,2013-02-09 10:11:00,
2013-02-09 05:13:00,10.9,-2.1,29.32,NNW,338,0.0,0.0,55,0.00,CLR,,0.00,WeatherDisplay:10.37,2013-02-09 10:13:00,
2013-02-09 05:14:00,10.9,-2.1,29.32,NW,315,0.0,0.0,55,0.00,CLR,,0.00,WeatherDisplay:10.37,2013-02-09 10:14:00,
2013-02-09 05:15:00,10.9,-2.1,29.32,NW,315,0.0,0.0,55,0.00,CLR,,0.00,WeatherDisplay:10.37,2013-02-09 10:15:00,
2013-02-09 05:16:00,10.8,-2.3,29.32,NNW,338,0.0,0.0,55,0.00,CLR,,0.00,WeatherDisplay:10.37,2013-02-09 10:16:00,
2013-02-09 05:18:00,10.8,-2.3,29.32,NNW,338,0.0,0.0,55,0.00,CLR,,0.00,WeatherDisplay:10.37,2013-02-09 10:18:00,
2013-02-09 05:19:00,10.8,-2.3,29.32,NNW,338,0.0,0.0,55,0.00,CLR,,0.00,WeatherDisplay:10.37,2013-02-09 10:19:00,
2013-02-09 05:20:00,10.6,-2.4,29.32,NNW,338,0.0,0.0,55,0.00,CLR,,0.00,WeatherDisplay:10.37,2013-02-09 10:20:00,
2013-02-09 05:21:00,10.4,-2.6,29.32,NNW,338,0.0,0.0,55,0.00,CLR,,0.00,WeatherDisplay:10.37,2013-02-09 10:21:00,
2013-02-09 05:23:00,10.6,-2.4,29.32,WSW,248,0.0,0.0,55,0.00,CLR,,0.00,WeatherDisplay:10.37,2013-02-09 10:23:00,
2013-02-09 05:24:00,10.6,-2.4,29.32,WSW,248,0.0,0.0,55,0.00,CLR,,0.00,WeatherDisplay:10.37,2013-02-09 10:24:00,
2013-02-09 05:25:00,10.6,-2.4,29.32,WSW,248,0.0,0.0,55,0.00,CLR,,0.00,WeatherDisplay:10.37,2013-02-09 10:25:00,
2013-02-09 05:27:00,10.8,-2.3,29.32,WNW,292,0.0,0.0,55,0.00,CLR,,0.00,WeatherDisplay:10.37,2013-02-09 10:27:00,
2013-02-09 05:29:00,10.8,-2.3,29.32,NNW,338,0.0,0.0,55,0.00,CLR,,0.00,WeatherDisplay:10.37,2013-02-09 10:29:00,
2013-02-09 05:30:00,10.4,-2.6,29.32,NNW,338,0.0,0.0,55,0.00,CLR,,0.00,WeatherDisplay:10.37,2013-02-09 10:30:00,
2013-02-09 05:32:00,10.4,-2.6,29.32,NW,315,0.0,0.0,55,0.00,CLR,,0.00,WeatherDisplay:10.37,2013-02-09 10:32:00,
2013-02-09 05:34:00,10.4,-2.6,29.32,NW,315,0.0,0.0,55,0.00,CLR,,0.00,WeatherDisplay:10.37,2013-02-09 10:34:00,
2013-02-09 05:35:00,10.4,-2.6,29.32,NW,315,0.0,0.0,55,0.00,CLR,,0.00,WeatherDisplay:10.37,2013-02-09 10:35:00,
2013-02-09 05:37:00,10.4,-2.6,29.32,WNW,292,0.0,0.0,55,0.00,CLR,,0.00,WeatherDisplay:10.37,2013-02-09 10:37:00,
2013-02-09 05:39:00,10.4,-2.6,29.32,North,0,0.0,0.0,55,0.00,CLR,,0.00,WeatherDisplay:10.37,2013-02-09 10:39:00,
2013-02-09 05:40:00,10.4,-2.6,29.32,NNE,22,2.2,0.0,55,0.00,CLR,,0.00,WeatherDisplay:10.37,2013-02-09 10:40:00,
2013-02-09 05:43:00,10.6,-2.4,29.32,NNE,22,0.0,0.0,55,0.00,CLR,,0.00,WeatherDisplay:10.37,2013-02-09 10:43:00,
2013-02-09 05:44:00,10.6,-2.4,29.35,NNE,22,0.0,0.0,55,0.00,CLR,,0.00,WeatherDisplay:10.37,2013-02-09 10:44:00,
2013-02-09 05:45:00,10.6,-2.4,29.35,NNE,22,2.4,0.0,55,0.00,CLR,,0.00,WeatherDisplay:10.37,2013-02-09 10:45:00,
2013-02-09 05:46:00,10.8,-2.3,29.35,NNE,22,3.5,3.5,55,0.00,CLR,,0.00,WeatherDisplay:10.37,2013-02-09 10:46:00,
2013-02-09 05:48:00,10.8,-2.3,29.35,NNE,22,4.0,4.0,55,0.00,CLR,,0.00,WeatherDisplay:10.37,2013-02-09 10:48:00,
2013-02-09 05:49:00,10.8,-2.3,29.35,NNE,22,4.6,4.6,55,0.00,CLR,,0.00,WeatherDisplay:10.37,2013-02-09 10:49:00,
2013-02-09 05:50:00,10.8,-2.3,29.35,NNE,22,3.0,5.0,55,0.00,CLR,,0.00,WeatherDisplay:10.37,2013-02-09 10:50:00,
2013-02-09 05:51:00,10.9,-2.1,29.35,NNE,22,3.5,3.5,55,0.00,CLR,,0.00,WeatherDisplay:10.37,2013-02-09 10:51:00,
2013-02-09 05:53:00,10.9,-2.1,29.35,NNE,22,2.3,2.3,55,0.00,CLR,,0.00,WeatherDisplay:10.37,2013-02-09 10:53:00,
2013-02-09 05:55:00,11.1,-1.9,29.35,NNE,22,0.0,0.0,55,0.00,CLR,,0.00,WeatherDisplay:10.37,2013-02-09 10:55:00,
2013-02-09 05:56:00,11.1,-1.9,29.35,NNE,22,0.0,0.0,55,0.00,CLR,,0.00,WeatherDisplay:10.37,2013-02-09 10:56:00,
2013-02-09 05:58:00,11.1,-1.9,29.35,NNE,22,0.0,0.0,55,0.00,CLR,,0.00,WeatherDisplay:10.37,2013-02-09 10:58:00,
2013-02-09 06:00:00,11.1,-1.9,29.35,NNE,22,0.0,0.0,55,0.00,CLR,,0.00,WeatherDisplay:10.37,2013-02-09 11:00:00,
2013-02-09 06:02:00,11.3,-1.8,29.35,NNE,22,0.0,0.0,55,0.00,CLR,,0.00,WeatherDisplay:10.37,2013-02-09 11:02:00,
2013-02-09 06:03:00,10.9,-2.1,29.35,NNE,22,0.0,0.0,55,0.00,CLR,,0.00,WeatherDisplay:10.37,2013-02-09 11:03:00,
2013-02-09 06:05:00,10.9,-2.1,29.35,NNE,22,0.0,0.0,55,0.00,CLR,,0.00,WeatherDisplay:10.37,2013-02-09 11:05:00,
2013-02-09 06:07:00,10.9,-2.1,29.35,NNE,22,0.0,0.0,55,0.00,CLR,,0.00,WeatherDisplay:10.37,2013-02-09 11:07:00,
2013-02-09 06:09:00,11.1,-1.9,29.35,NNE,22,0.0,0.0,55,0.00,CLR,,0.00,WeatherDisplay:10.37,2013-02-09 11:09:00,
2013-02-09 06:10:00,11.1,-1.9,29.35,NNE,22,3.8,0.0,55,0.00,CLR,,0.00,WeatherDisplay:10.37,2013-02-09 11:10:00,
2013-02-09 06:12:00,11.1,-1.9,29.35,NNE,22,3.6,3.6,55,0.00,CLR,,0.00,WeatherDisplay:10.37,2013-02-09 11:12:00,
2013-02-09 06:14:00,11.3,-1.8,29.32,NNE,22,3.8,3.8,55,0.00,CLR,,0.00,WeatherDisplay:10.37,2013-02-09 11:14:00,
2013-02-09 06:15:00,11.5,-1.6,29.32,NNE,22,3.5,3.5,55,0.00,CLR,,0.00,WeatherDisplay:10.37,2013-02-09 11:15:00,
2013-02-09 06:17:00,11.3,-1.8,29.32,NNE,22,3.8,3.8,55,0.00,CLR,,0.00,WeatherDisplay:10.37,2013-02-09 11:17:00,
2013-02-09 06:19:00,11.3,-1.8,29.32,NNE,22,4.3,4.3,55,0.00,CLR,,0.00,WeatherDisplay:10.37,2013-02-09 11:19:00,
2013-02-09 06:20:00,11.3,-1.8,29.32,NNE,22,4.6,4.6,55,0.00,CLR,,0.00,WeatherDisplay:10.37,2013-02-09 11:20:00,
2013-02-09 06:21:00,11.3,-1.8,29.32,NNE,22,4.6,4.6,55,0.00,CLR,,0.00,WeatherDisplay:10.37,2013-02-09 11:21:00,
2013-02-09 06:22:00,11.3,-1.8,29.32,NNE,22,3.5,3.5,55,0.00,CLR,,0.00,WeatherDisplay:10.37,2013-02-09 11:22:00,
2013-02-09 06:24:00,11.5,-1.6,29.32,NNE,22,3.5,3.5,55,0.00,CLR,,0.00,WeatherDisplay:10.37,2013-02-09 11:24:00,
2013-02-09 06:25:00,11.5,-1.6,29.32,NNE,22,2.9,2.9,55,0.00,CLR,,0.00,WeatherDisplay:10.37,2013-02-09 11:25:00,
2013-02-09 06:26:00,11.5,-1.6,29.32,NNE,22,3.1,3.1,55,0.00,CLR,,0.00,WeatherDisplay:10.37,2013-02-09 11:26:00,
2013-02-09 06:27:00,11.5,-1.6,29.32,NNE,22,3.5,3.5,55,0.00,CLR,,0.00,WeatherDisplay:10.37,2013-02-09 11:27:00,
2013-02-09 06:29:00,11.7,-1.4,29.32,NNE,22,3.5,3.5,55,0.00,CLR,,0.00,WeatherDisplay:10.37,2013-02-09 11:29:00,
2013-02-09 06:30:00,11.7,-1.4,29.32,NNE,22,3.5,3.5,55,0.00,CLR,,0.00,WeatherDisplay:10.37,2013-02-09 11:30:00,
2013-02-09 06:31:00,11.7,-1.4,29.32,NNE,22,2.9,2.9,55,0.00,CLR,,0.00,WeatherDisplay:10.37,2013-02-09 11:31:00,
2013-02-09 06:33:00,11.7,-1.4,29.32,NNE,22,4.0,4.0,55,0.00,CLR,,0.00,WeatherDisplay:10.37,2013-02-09 11:33:00,
2013-02-09 06:34:00,11.8,-1.2,29.32,NNE,22,5.6,5.6,55,0.00,CLR,,0.00,WeatherDisplay:10.37,2013-02-09 11:34:00,
2013-02-09 06:36:00,11.8,-1.2,29.32,NNE,22,6.0,6.0,55,0.00,CLR,,0.00,WeatherDisplay:10.37,2013-02-09 11:36:00,
2013-02-09 06:38:00,11.8,-1.2,29.32,NNE,22,6.9,6.9,55,0.00,CLR,,0.00,WeatherDisplay:10.37,2013-02-09 11:38:00,
2013-02-09 06:40:00,11.8,-1.2,29.32,NNE,22,5.8,5.8,55,0.00,CLR,,0.00,WeatherDisplay:10.37,2013-02-09 11:40:00,
2013-02-09 06:41:00,11.8,-1.2,29.32,NNE,22,5.8,5.8,55,0.00,CLR,,0.00,WeatherDisplay:10.37,2013-02-09 11:41:00,
2013-02-09 06:43:00,11.8,-1.2,29.32,NNE,22,5.8,5.8,55,0.00,CLR,,0.00,WeatherDisplay:10.37,2013-02-09 11:43:00,
2013-02-09 06:45:00,11.8,-1.2,29.35,NNE,22,5.8,5.8,55,0.00,CLR,,0.00,WeatherDisplay:10.37,2013-02-09 11:45:00,
2013-02-09 06:46:00,11.8,-1.2,29.35,NNE,22,5.8,5.8,55,0.00,CLR,,0.00,WeatherDisplay:10.37,2013-02-09 11:46:00,
2013-02-09 06:48:00,11.8,-1.2,29.35,North,0,5.8,5.8,55,0.00,CLR,,0.00,WeatherDisplay:10.37,2013-02-09 11:48:00,
2013-02-09 06:50:00,11.8,-1.2,29.35,NNE,22,3.6,3.6,55,0.00,CLR,,0.00,WeatherDisplay:10.37,2013-02-09 11:50:00,
2013-02-09 06:51:00,11.8,-1.2,29.35,NNE,22,4.6,4.6,55,0.00,CLR,,0.00,WeatherDisplay:10.37,2013-02-09 11:51:00,
2013-02-09 06:53:00,11.8,-1.2,29.35,NNE,22,3.6,3.6,55,0.00,CLR,,0.00,WeatherDisplay:10.37,2013-02-09 11:53:00,
2013-02-09 06:55:00,11.8,-1.2,29.35,NNE,22,3.6,3.6,55,0.00,CLR,,0.00,WeatherDisplay:10.37,2013-02-09 11:55:00,
2013-02-09 06:56:00,11.8,-1.2,29.35,NNE,22,4.6,4.6,55,0.00,CLR,,0.00,WeatherDisplay:10.37,2013-02-09 11:56:00,
2013-02-09 06:57:00,11.8,-1.2,29.35,NNE,22,4.6,4.6,55,0.00,CLR,,0.00,WeatherDisplay:10.37,2013-02-09 11:57:00,
2013-02-09 06:58:00,11.8,-1.2,29.35,NNE,22,4.6,4.6,55,0.00,CLR,,0.00,WeatherDisplay:10.37,2013-02-09 11:58:00,
2013-02-09 07:00:00,11.8,-1.2,29.35,NNE,22,4.6,4.6,55,0.00,CLR,,0.00,WeatherDisplay:10.37,2013-02-09 12:00:00,
2013-02-09 07:01:00,11.8,-1.2,29.35,NNE,22,3.5,3.5,55,0.00,CLR,,0.00,WeatherDisplay:10.37,2013-02-09 12:01:00,
2013-02-09 07:02:00,11.8,-1.2,29.35,NNE,22,3.5,3.5,55,0.00,CLR,,0.00,WeatherDisplay:10.37,2013-02-09 12:02:00,
2013-02-09 07:03:00,11.8,-1.2,29.35,NNE,22,2.4,2.4,55,0.00,CLR,,0.00,WeatherDisplay:10.37,2013-02-09 12:03:00,
2013-02-09 07:06:00,11.8,-1.2,29.35,NNE,22,3.5,3.8,55,0.00,CLR,,0.00,WeatherDisplay:10.37,2013-02-09 12:06:00,
2013-02-09 07:07:00,11.8,-1.2,29.35,NNE,22,3.5,3.5,55,0.00,CLR,,0.00,WeatherDisplay:10.37,2013-02-09 12:07:00,
2013-02-09 07:08:00,11.8,-1.2,29.35,NNE,22,3.5,3.5,55,0.00,CLR,,0.00,WeatherDisplay:10.37,2013-02-09 12:08:00,
2013-02-09 07:11:00,11.8,-1.2,29.35,NNE,22,3.8,0.0,55,0.00,CLR,,0.00,WeatherDisplay:10.37,2013-02-09 12:11:00,
2013-02-09 07:12:00,11.8,-1.2,29.35,NNE,22,2.9,2.9,55,0.00,CLR,,0.00,WeatherDisplay:10.37,2013-02-09 12:12:00,
2013-02-09 07:13:00,11.8,-1.2,29.35,NNE,22,3.5,3.5,55,0.00,CLR,,0.00,WeatherDisplay:10.37,2013-02-09 12:13:00,
2013-02-09 07:16:00,11.8,-1.2,29.35,NNE,22,0.0,0.0,55,0.00,CLR,,0.00,WeatherDisplay:10.37,2013-02-09 12:16:00,
2013-02-09 07:17:00,11.8,-1.2,29.35,NNE,22,0.0,0.0,55,0.00,CLR,,0.00,WeatherDisplay:10.37,2013-02-09 12:17:00,
2013-02-09 07:18:00,11.3,-1.8,29.35,North,0,0.0,0.0,55,0.00,CLR,,0.00,WeatherDisplay:10.37,2013-02-09 12:18:00,
2013-02-09 07:21:00,11.1,-1.9,29.35,NNW,338,0.0,0.0,55,0.00,CLR,,0.00,WeatherDisplay:10.37,2013-02-09 12:21:00,
2013-02-09 07:22:00,11.1,-1.9,29.35,North,0,0.0,0.0,55,0.00,CLR,,0.00,WeatherDisplay:10.37,2013-02-09 12:22:00,
2013-02-09 07:23:00,11.1,-1.9,29.35,NNW,338,0.0,0.0,55,0.00,CLR,,0.00,WeatherDisplay:10.37,2013-02-09 12:23:00,
2013-02-09 07:26:00,10.9,-2.1,29.35,North,0,0.0,0.0,55,0.00,CLR,,0.00,WeatherDisplay:10.37,2013-02-09 12:26:00,
2013-02-09 07:27:00,11.1,-1.9,29.35,North,0,4.0,4.0,55,0.00,CLR,,0.00,WeatherDisplay:10.37,2013-02-09 12:27:00,
2013-02-09 07:29:00,11.1,-1.9,29.38,NNE,22,4.6,4.6,55,0.00,CLR,,0.00,WeatherDisplay:10.37,2013-02-09 12:29:00,
2013-02-09 07:31:00,11.3,-1.8,29.38,NNE,22,4.6,4.6,55,0.00,CLR,,0.00,WeatherDisplay:10.37,2013-02-09 12:31:00,
2013-02-09 07:32:00,11.3,-1.8,29.38,North,0,3.5,3.5,55,0.00,CLR,,0.00,WeatherDisplay:10.37,2013-02-09 12:32:00,
2013-02-09 07:34:00,11.5,-1.6,29.38,North,0,2.3,2.3,55,0.00,CLR,,0.00,WeatherDisplay:10.37,2013-02-09 12:34:00,
2013-02-09 07:36:00,11.5,-1.6,29.38,North,0,3.5,3.5,55,0.00,CLR,,0.00,WeatherDisplay:10.37,2013-02-09 12:36:00,
2013-02-09 07:37:00,11.5,-1.6,29.38,NNE,22,2.3,2.3,55,0.00,CLR,,0.00,WeatherDisplay:10.37,2013-02-09 12:37:00,
2013-02-09 07:39:00,11.5,-1.6,29.38,North,0,2.3,2.3,55,0.00,CLR,,0.00,WeatherDisplay:10.37,2013-02-09 12:39:00,
2013-02-09 07:42:00,11.5,-1.6,29.38,North,0,0.0,0.0,55,0.00,CLR,,0.00,WeatherDisplay:10.37,2013-02-09 12:42:00,
2013-02-09 07:43:00,11.5,-1.6,29.38,NNW,338,0.0,0.0,55,0.00,CLR,,0.00,WeatherDisplay:10.37,2013-02-09 12:43:00,
2013-02-09 07:44:00,11.3,-1.8,29.35,NNW,338,0.0,0.0,55,0.00,CLR,,0.00,WeatherDisplay:10.37,2013-02-09 12:44:00,
2013-02-09 07:47:00,11.3,-1.8,29.35,NNE,22,0.0,0.0,55,0.00,CLR,,0.00,WeatherDisplay:10.37,2013-02-09 12:47:00,
2013-02-09 07:48:00,11.3,-1.8,29.35,North,0,0.0,0.0,55,0.00,CLR,,0.00,WeatherDisplay:10.37,2013-02-09 12:48:00,
2013-02-09 07:49:00,11.3,-1.8,29.35,North,0,0.0,0.0,55,0.00,CLR,,0.00,WeatherDisplay:10.37,2013-02-09 12:49:00,
2013-02-09 07:52:00,11.3,-1.8,29.35,NNE,22,0.0,0.0,55,0.00,CLR,,0.00,WeatherDisplay:10.37,2013-02-09 12:52:00,
2013-02-09 07:53:00,11.1,-1.9,29.35,NNE,22,0.0,0.0,55,0.00,CLR,,0.00,WeatherDisplay:10.37,2013-02-09 12:53:00,
2013-02-09 07:54:00,11.1,-1.9,29.35,NNE,22,0.0,0.0,55,0.00,CLR,,0.00,WeatherDisplay:10.37,2013-02-09 12:54:00,
2013-02-09 07:57:00,11.1,-1.9,29.35,NNE,22,3.8,3.8,55,0.00,CLR,,0.00,WeatherDisplay:10.37,2013-02-09 12:57:00,
2013-02-09 07:58:00,11.1,-1.9,29.35,NNE,22,4.6,4.6,55,0.00,CLR,,0.00,WeatherDisplay:10.37,2013-02-09 12:58:00,
2013-02-09 07:59:00,11.1,-1.9,29.35,NNE,22,3.5,3.5,55,0.00,CLR,,0.00,WeatherDisplay:10.37,2013-02-09 12:59:00,
2013-02-09 08:02:00,11.1,-1.9,29.35,NNE,22,4.0,4.0,55,0.00,CLR,,0.00,WeatherDisplay:10.37,2013-02-09 13:02:00,
2013-02-09 08:03:00,11.1,-1.9,29.35,NNE,22,4.6,4.6,55,0.00,CLR,,0.00,WeatherDisplay:10.37,2013-02-09 13:03:00,
2013-02-09 08:05:00,11.1,-1.9,29.35,NNE,22,3.5,3.5,55,0.00,CLR,,0.00,WeatherDisplay:10.37,2013-02-09 13:05:00,
2013-02-09 08:07:00,11.1,-1.9,29.35,NNE,22,2.3,2.4,55,0.00,CLR,,0.00,WeatherDisplay:10.37,2013-02-09 13:07:00,
2013-02-09 08:08:00,11.1,-1.9,29.35,NNE,22,2.3,2.3,55,0.00,CLR,,0.00,WeatherDisplay:10.37,2013-02-09 13:08:00,
2013-02-09 08:10:00,10.9,-2.1,29.35,NNE,22,1.1,0.0,55,0.00,CLR,,0.00,WeatherDisplay:10.37,2013-02-09 13:10:00,
2013-02-09 08:12:00,10.8,-2.3,29.35,NNE,22,0.0,0.0,55,0.00,CLR,,0.00,WeatherDisplay:10.37,2013-02-09 13:12:00,
2013-02-09 08:13:00,10.9,-2.1,29.35,NNE,22,0.0,0.0,55,0.00,CLR,,0.00,WeatherDisplay:10.37,2013-02-09 13:13:00,
2013-02-09 08:14:00,10.9,-2.1,29.38,NNE,22,0.0,0.0,55,0.00,CLR,,0.00,WeatherDisplay:10.37,2013-02-09 13:14:00,
2013-02-09 08:15:00,10.8,-2.3,29.38,NNE,22,0.0,0.0,55,0.00,CLR,,0.00,WeatherDisplay:10.37,2013-02-09 13:15:00,
2013-02-09 08:18:00,10.8,-2.3,29.38,NNE,22,0.0,0.0,55,0.00,CLR,,0.00,WeatherDisplay:10.37,2013-02-09 13:18:00,
2013-02-09 08:19:00,10.9,-2.1,29.38,North,0,0.0,0.0,55,0.00,CLR,,0.00,WeatherDisplay:10.37,2013-02-09 13:19:00,
2013-02-09 08:21:00,10.9,-2.1,29.38,NNW,338,0.0,0.0,55,0.00,CLR,,0.00,WeatherDisplay:10.37,2013-02-09 13:21:00,
2013-02-09 08:23:00,11.1,-1.9,29.38,NNW,338,0.0,0.0,55,0.00,CLR,,0.00,WeatherDisplay:10.37,2013-02-09 13:23:00,
2013-02-09 08:24:00,11.1,-1.9,29.38,NNE,22,0.0,0.0,55,0.00,CLR,,0.00,WeatherDisplay:10.37,2013-02-09 13:24:00,
2013-02-09 08:26:00,10.9,-2.1,29.38,NNW,338,0.0,0.0,55,0.00,CLR,,0.00,WeatherDisplay:10.37,2013-02-09 13:26:00,
2013-02-09 08:28:00,10.9,-2.1,29.38,North,0,0.0,0.0,55,0.00,CLR,,0.00,WeatherDisplay:10.37,2013-02-09 13:28:00,
2013-02-09 08:29:00,11.1,-1.9,29.35,North,0,0.0,0.0,55,0.00,CLR,,0.00,WeatherDisplay:10.37,2013-02-09 13:29:00,
2013-02-09 08:31:00,11.1,-1.9,29.35,NNE,22,0.0,0.0,55,0.00,CLR,,0.00,WeatherDisplay:10.37,2013-02-09 13:31:00,
2013-02-09 08:33:00,11.3,-1.8,29.35,NNE,22,0.0,0.0,55,0.00,CLR,,0.00,WeatherDisplay:10.37,2013-02-09 13:33:00,
2013-02-09 08:34:00,11.3,-1.8,29.35,NNE,22,0.0,0.0,55,0.00,CLR,,0.00,WeatherDisplay:10.37,2013-02-09 13:34:00,
2013-02-09 08:37:00,11.5,-1.6,29.35,NNE,22,0.0,0.0,55,0.00,CLR,,0.00,WeatherDisplay:10.37,2013-02-09 13:37:00,
2013-02-09 08:38:00,11.7,-1.4,29.35,NNE,22,0.0,0.0,55,0.00,CLR,,0.00,WeatherDisplay:10.37,2013-02-09 13:38:00,
2013-02-09 08:39:00,11.7,-1.4,29.35,NNE,22,0.0,0.0,55,0.00,CLR,,0.00,WeatherDisplay:10.37,2013-02-09 13:39:00,
2013-02-09 08:42:00,11.7,-1.4,29.35,NNE,22,0.0,0.0,55,0.00,CLR,,0.00,WeatherDisplay:10.37,2013-02-09 13:42:00,
2013-02-09 08:43:00,11.7,-1.4,29.35,NNE,22,0.0,0.0,55,0.00,CLR,,0.00,WeatherDisplay:10.37,2013-02-09 13:43:00,
2013-02-09 08:44:00,11.7,-1.4,29.38,NNE,22,0.0,0.0,55,0.00,CLR,,0.00,WeatherDisplay:10.37,2013-02-09 13:44:00,
2013-02-09 08:47:00,11.8,-1.2,29.38,NNE,22,0.0,0.0,55,0.00,CLR,,0.00,WeatherDisplay:10.37,2013-02-09 13:47:00,
2013-02-09 08:48:00,11.8,-1.2,29.38,NNE,22,0.0,0.0,55,0.00,CLR,,0.00,WeatherDisplay:10.37,2013-02-09 13:48:00,
2013-02-09 08:49:00,11.8,-1.2,29.38,NNE,22,0.0,0.0,55,0.00,CLR,,0.00,WeatherDisplay:10.37,2013-02-09 13:49:00,
2013-02-09 08:52:00,11.8,-1.2,29.38,NNE,22,0.0,0.0,55,0.00,CLR,,0.00,WeatherDisplay:10.37,2013-02-09 13:52:00,
2013-02-09 08:53:00,11.8,-1.2,29.38,NNE,22,0.0,0.0,55,0.00,CLR,,0.00,WeatherDisplay:10.37,2013-02-09 13:53:00,
2013-02-09 08:54:00,11.8,-1.2,29.38,NNE,22,0.0,0.0,55,0.00,CLR,,0.00,WeatherDisplay:10.37,2013-02-09 13:54:00,
2013-02-09 08:55:00,12.0,-1.1,29.38,NNE,22,0.0,0.0,55,0.00,CLR,,0.00,WeatherDisplay:10.37,2013-02-09 13:55:00,
2013-02-09 08:57:00,12.0,-1.1,29.38,NNE,22,0.0,0.0,55,0.00,CLR,,0.00,WeatherDisplay:10.37,2013-02-09 13:57:00,
2013-02-09 08:58:00,12.2,-0.9,29.38,NNE,22,0.0,0.0,55,0.00,CLR,,0.00,WeatherDisplay:10.37,2013-02-09 13:58:00,
2013-02-09 09:00:00,12.2,-0.9,29.38,NNE,22,0.0,0.0,55,0.00,CLR,,0.00,WeatherDisplay:10.37,2013-02-09 14:00:00,
2013-02-09 09:02:00,12.2,-0.9,29.38,NNE,22,0.0,0.0,55,0.00,CLR,,0.00,WeatherDisplay:10.37,2013-02-09 14:02:00,
2013-02-09 09:04:00,12.2,-0.9,29.38,NNE,22,0.0,0.0,55,0.00,CLR,,0.00,WeatherDisplay:10.37,2013-02-09 14:04:00,
2013-02-09 09:05:00,12.2,-0.9,29.38,North,0,0.0,0.0,55,0.00,CLR,,0.00,WeatherDisplay:10.37,2013-02-09 14:05:00,
2013-02-09 09:07:00,12.2,-0.9,29.38,North,0,0.0,0.0,55,0.00,CLR,,0.00,WeatherDisplay:10.37,2013-02-09 14:07:00,
2013-02-09 09:09:00,12.4,-0.7,29.38,NNW,338,0.0,0.0,55,0.00,CLR,,0.00,WeatherDisplay:10.37,2013-02-09 14:09:00,
2013-02-09 09:10:00,12.4,-0.7,29.38,North,0,0.0,0.0,55,0.00,CLR,,0.00,WeatherDisplay:10.37,2013-02-09 14:10:00,
2013-02-09 09:12:00,12.7,-0.4,29.38,NNE,22,0.0,0.0,55,0.00,CLR,,0.00,WeatherDisplay:10.37,2013-02-09 14:12:00,
2013-02-09 09:14:00,12.7,-0.4,29.38,NNE,22,0.0,0.0,55,0.00,CLR,,0.00,WeatherDisplay:10.37,2013-02-09 14:14:00,
2013-02-09 09:15:00,12.9,-0.2,29.38,North,0,0.0,0.0,55,0.00,CLR,,0.00,WeatherDisplay:10.37,2013-02-09 14:15:00,
2013-02-09 09:16:00,12.9,-0.2,29.38,North,0,0.0,0.0,55,0.00,CLR,,0.00,WeatherDisplay:10.37,2013-02-09 14:16:00,
2013-02-09 09:17:00,12.9,-0.2,29.38,NNE,22,0.0,0.0,55,0.00,CLR,,0.00,WeatherDisplay:10.37,2013-02-09 14:17:00,
2013-02-09 09:19:00,13.1,-0.1,29.38,NNE,22,0.0,0.0,55,0.00,CLR,,0.00,WeatherDisplay:10.37,2013-02-09 14:19:00,
2013-02-09 09:20:00,13.1,-0.1,29.38,NNE,22,0.0,0.0,55,0.00,CLR,,0.00,WeatherDisplay:10.37,2013-02-09 14:20:00,
2013-02-09 09:21:00,13.1,-0.1,29.38,NNE,22,0.0,0.0,55,0.00,CLR,,0.00,WeatherDisplay:10.37,2013-02-09 14:21:00,
2013-02-09 09:22:00,13.3,0.1,29.38,SSE,158,0.0,0.0,55,0.00,CLR,,0.00,WeatherDisplay:10.37,2013-02-09 14:22:00,
2013-02-09 09:24:00,13.3,0.1,29.38,NNE,22,0.0,0.0,55,0.00,CLR,,0.00,WeatherDisplay:10.37,2013-02-09 14:24:00,
2013-02-09 09:26:00,13.5,0.3,29.38,NNE,22,0.0,0.0,55,0.00,CLR,,0.00,WeatherDisplay:10.37,2013-02-09 14:26:00,
2013-02-09 09:27:00,13.5,0.3,29.38,NNE,22,0.0,0.0,55,0.00,CLR,,0.00,WeatherDisplay:10.37,2013-02-09 14:27:00,
2013-02-09 09:29:00,13.6,0.4,29.35,NNE,22,0.0,0.0,55,0.00,CLR,,0.00,WeatherDisplay:10.37,2013-02-09 14:29:00,
2013-02-09 09:31:00,13.6,0.4,29.35,NNE,22,0.0,0.0,55,0.00,CLR,,0.00,WeatherDisplay:10.37,2013-02-09 14:31:00,
2013-02-09 09:32:00,13.8,0.6,29.35,NNE,22,0.0,0.0,55,0.00,CLR,,0.00,WeatherDisplay:10.37,2013-02-09 14:32:00,
2013-02-09 09:34:00,13.8,0.6,29.35,NNE,22,0.0,0.0,55,0.00,CLR,,0.00,WeatherDisplay:10.37,2013-02-09 14:34:00,
2013-02-09 09:36:00,13.8,0.6,29.35,NNE,22,0.0,0.0,55,0.00,CLR,,0.00,WeatherDisplay:10.37,2013-02-09 14:36:00,
2013-02-09 09:38:00,14.4,2.3,29.35,NNE,22,0.0,0.0,58,0.00,CLR,,0.00,WeatherDisplay:10.37,2013-02-09 14:38:00,
2013-02-09 09:40:00,14.4,2.3,29.35,NNE,22,0.0,0.0,58,0.00,CLR,,0.00,WeatherDisplay:10.37,2013-02-09 14:40:00,
2013-02-09 09:41:00,14.5,2.4,29.35,NNE,22,0.0,0.0,58,0.00,CLR,,0.00,WeatherDisplay:10.37,2013-02-09 14:41:00,
2013-02-09 09:43:00,14.5,2.8,29.35,NNE,22,0.0,0.0,59,0.00,CLR,,0.00,WeatherDisplay:10.37,2013-02-09 14:43:00,
2013-02-09 09:45:00,14.9,3.1,29.38,NNE,22,0.0,0.0,59,0.00,CLR,,0.00,WeatherDisplay:10.37,2013-02-09 14:45:00,
2013-02-09 09:46:00,14.9,3.1,29.38,NNE,22,0.0,0.0,59,0.00,CLR,,0.00,WeatherDisplay:10.37,2013-02-09 14:46:00,
2013-02-09 09:47:00,15.1,3.3,29.38,NNE,22,0.0,0.0,59,0.00,CLR,,0.00,WeatherDisplay:10.37,2013-02-09 14:47:00,
2013-02-09 09:48:00,15.1,3.3,29.38,NNE,22,0.0,0.0,59,0.00,CLR,,0.00,WeatherDisplay:10.37,2013-02-09 14:48:00,
2013-02-09 09:50:00,15.1,3.3,29.38,NNE,22,0.0,0.0,59,0.00,CLR,,0.00,WeatherDisplay:10.37,2013-02-09 14:50:00,
2013-02-09 09:51:00,15.1,3.3,29.38,NNE,22,0.0,0.0,59,0.00,CLR,,0.00,WeatherDisplay:10.37,2013-02-09 14:51:00,
2013-02-09 09:52:00,15.1,3.3,29.38,NNE,22,0.0,0.0,59,0.00,CLR,,0.00,WeatherDisplay:10.37,2013-02-09 14:52:00,
2013-02-09 09:53:00,15.1,3.3,29.38,NNE,22,0.0,0.0,59,0.00,CLR,,0.00,WeatherDisplay:10.37,2013-02-09 14:53:00,
2013-02-09 09:55:00,15.1,3.3,29.38,NNE,22,0.0,0.0,59,0.00,CLR,,0.00,WeatherDisplay:10.37,2013-02-09 14:55:00,
2013-02-09 09:56:00,15.1,3.3,29.38,NNE,22,0.0,0.0,59,0.00,CLR,,0.00,WeatherDisplay:10.37,2013-02-09 14:56:00,
2013-02-09 09:57:00,15.1,3.3,29.38,NNE,22,0.0,0.0,59,0.00,CLR,,0.00,WeatherDisplay:10.37,2013-02-09 14:57:00,
2013-02-09 09:58:00,15.1,3.3,29.38,NNE,22,0.0,0.0,59,0.00,CLR,,0.00,WeatherDisplay:10.37,2013-02-09 14:58:00,
2013-02-09 10:00:00,15.1,3.3,29.38,NNE,22,0.0,0.0,59,0.00,CLR,,0.00,WeatherDisplay:10.37,2013-02-09 15:00:00,
2013-02-09 10:01:00,15.1,3.3,29.38,NNE,22,0.0,0.0,59,0.00,CLR,,0.00,WeatherDisplay:10.37,2013-02-09 15:01:00,
2013-02-09 10:02:00,15.1,3.3,29.38,NNE,22,0.0,0.0,59,0.00,CLR,,0.00,WeatherDisplay:10.37,2013-02-09 15:02:00,
2013-02-09 10:03:00,15.1,3.3,29.38,NNE,22,0.0,0.0,59,0.00,CLR,,0.00,WeatherDisplay:10.37,2013-02-09 15:03:00,
2013-02-09 10:05:00,15.1,3.3,29.38,NNE,22,0.0,0.0,59,0.00,CLR,,0.00,WeatherDisplay:10.37,2013-02-09 15:05:00,
2013-02-09 10:07:00,15.1,3.3,29.38,NNE,22,0.0,0.0,59,0.00,CLR,,0.00,WeatherDisplay:10.37,2013-02-09 15:07:00,
2013-02-09 10:08:00,15.1,3.3,29.38,NNE,22,0.0,0.0,59,0.00,CLR,,0.00,WeatherDisplay:10.37,2013-02-09 15:08:00,
2013-02-09 10:09:00,15.1,3.3,29.38,NNE,22,0.0,0.0,59,0.00,CLR,,0.00,WeatherDisplay:10.37,2013-02-09 15:09:00,
2013-02-09 10:10:00,15.1,3.3,29.38,NNE,22,0.0,0.0,59,0.00,CLR,,0.00,WeatherDisplay:10.37,2013-02-09 15:10:00,
2013-02-09 10:12:00,15.1,3.3,29.38,NNE,22,0.0,0.0,59,0.00,CLR,,0.00,WeatherDisplay:10.37,2013-02-09 15:12:00,
2013-02-09 10:13:00,15.1,3.3,29.38,NNE,22,0.0,0.0,59,0.00,CLR,,0.00,WeatherDisplay:10.37,2013-02-09 15:13:00,
2013-02-09 10:14:00,15.1,3.3,29.38,NNE,22,0.0,0.0,59,0.00,CLR,,0.00,WeatherDisplay:10.37,2013-02-09 15:14:00,
2013-02-09 10:16:00,15.1,3.3,29.38,NNE,22,0.0,0.0,59,0.00,CLR,,0.00,WeatherDisplay:10.37,2013-02-09 15:16:00,
2013-02-09 10:17:00,15.1,3.3,29.38,NNE,22,0.0,0.0,59,0.00,CLR,,0.00,WeatherDisplay:10.37,2013-02-09 15:17:00,
2013-02-09 10:18:00,15.1,3.3,29.38,NNE,22,0.0,0.0,59,0.00,CLR,,0.00,WeatherDisplay:10.37,2013-02-09 15:18:00,
2013-02-09 10:19:00,15.1,3.3,29.38,NNE,22,0.0,0.0,59,0.00,CLR,,0.00,WeatherDisplay:10.37,2013-02-09 15:19:00,
2013-02-09 10:21:00,15.1,3.3,29.38,NNE,22,0.0,0.0,59,0.00,CLR,,0.00,WeatherDisplay:10.37,2013-02-09 15:21:00,
2013-02-09 10:22:00,15.1,3.3,29.38,NNE,22,0.0,0.0,59,0.00,CLR,,0.00,WeatherDisplay:10.37,2013-02-09 15:22:00,
2013-02-09 10:23:00,15.1,3.3,29.38,NNE,22,0.0,0.0,59,0.00,CLR,,0.00,WeatherDisplay:10.37,2013-02-09 15:23:00,
2013-02-09 10:24:00,15.1,3.3,29.38,NNE,22,0.0,0.0,59,0.00,CLR,,0.00,WeatherDisplay:10.37,2013-02-09 15:24:00,
2013-02-09 10:26:00,15.1,3.3,29.38,NNE,22,0.0,0.0,59,0.00,CLR,,0.00,WeatherDisplay:10.37,2013-02-09 15:26:00,
2013-02-09 10:27:00,15.1,3.3,29.38,NNE,22,0.0,0.0,59,0.00,CLR,,0.00,WeatherDisplay:10.37,2013-02-09 15:27:00,
2013-02-09 10:28:00,15.1,3.3,29.38,NNE,22,0.0,0.0,59,0.00,CLR,,0.00,WeatherDisplay:10.37,2013-02-09 15:28:00,
2013-02-09 10:29:00,15.1,3.3,29.38,NNE,22,0.0,0.0,59,0.00,CLR,,0.00,WeatherDisplay:10.37,2013-02-09 15:29:00,
2013-02-09 10:31:00,15.1,3.3,29.38,NNE,22,0.0,0.0,59,0.00,CLR,,0.00,WeatherDisplay:10.37,2013-02-09 15:31:00,
2013-02-09 10:33:00,15.1,3.3,29.38,NNE,22,0.0,0.0,59,0.00,CLR,,0.00,WeatherDisplay:10.37,2013-02-09 15:33:00,
2013-02-09 10:35:00,15.1,3.3,29.38,NNE,22,0.0,0.0,59,0.00,CLR,,0.00,WeatherDisplay:10.37,2013-02-09 15:35:00,
2013-02-09 10:36:00,15.1,3.3,29.38,NNE,22,0.0,0.0,59,0.00,CLR,,0.00,WeatherDisplay:10.37,2013-02-09 15:36:00,
2013-02-09 10:38:00,15.1,3.3,29.38,NNE,22,0.0,0.0,59,0.00,CLR,,0.00,WeatherDisplay:10.37,2013-02-09 15:38:00,
2013-02-09 10:40:00,15.1,3.3,29.38,NNE,22,0.0,0.0,59,0.00,CLR,,0.00,WeatherDisplay:10.37,2013-02-09 15:40:00,
2013-02-09 10:41:00,15.1,3.3,29.38,NNE,22,0.0,0.0,59,0.00,CLR,,0.00,WeatherDisplay:10.37,2013-02-09 15:41:00,
2013-02-09 10:43:00,15.1,3.3,29.38,NNE,22,0.0,0.0,59,0.00,CLR,,0.00,WeatherDisplay:10.37,2013-02-09 15:43:00,
2013-02-09 10:45:00,15.1,3.3,29.38,NNE,22,0.0,0.0,59,0.00,CLR,,0.00,WeatherDisplay:10.37,2013-02-09 15:45:00,
2013-02-09 10:46:00,15.1,3.3,29.38,NNE,22,0.0,0.0,59,0.00,CLR,,0.00,WeatherDisplay:10.37,2013-02-09 15:46:00,
2013-02-09 10:48:00,15.1,3.3,29.38,NNE,22,0.0,0.0,59,0.00,CLR,,0.00,WeatherDisplay:10.37,2013-02-09 15:48:00,
2013-02-09 10:49:00,15.1,3.3,29.38,NNE,22,0.0,0.0,59,0.00,CLR,,0.00,WeatherDisplay:10.37,2013-02-09 15:49:00,
2013-02-09 10:50:00,15.1,3.3,29.38,NNE,22,0.0,0.0,59,0.00,CLR,,0.00,WeatherDisplay:10.37,2013-02-09 15:50:00,
2013-02-09 10:51:00,15.1,3.3,29.38,NNE,22,0.0,0.0,59,0.00,CLR,,0.00,WeatherDisplay:10.37,2013-02-09 15:51:00,
2013-02-09 10:54:00,15.1,3.3,29.38,NNE,22,0.0,0.0,59,0.00,CLR,,0.00,WeatherDisplay:10.37,2013-02-09 15:54:00,
2013-02-09 10:55:00,15.1,3.3,29.38,NNE,22,0.0,0.0,59,0.00,CLR,,0.00,WeatherDisplay:10.37,2013-02-09 15:55:00,
2013-02-09 10:56:00,15.1,3.3,29.38,NNE,22,0.0,0.0,59,0.00,CLR,,0.00,WeatherDisplay:10.37,2013-02-09 15:56:00,
2013-02-09 10:59:00,15.1,3.3,29.38,NNE,22,0.0,0.0,59,0.00,CLR,,0.00,WeatherDisplay:10.37,2013-02-09 15:59:00,
2013-02-09 11:00:00,15.1,3.3,29.38,NNE,22,0.0,0.0,59,0.00,CLR,,0.00,WeatherDisplay:10.37,2013-02-09 16:00:00,
2013-02-09 11:01:00,15.1,3.3,29.38,NNE,22,0.0,0.0,59,0.00,CLR,,0.00,WeatherDisplay:10.37,2013-02-09 16:01:00,
2013-02-09 11:04:00,15.1,3.3,29.38,NNE,22,0.0,0.0,59,0.00,CLR,,0.00,WeatherDisplay:10.37,2013-02-09 16:04:00,
2013-02-09 11:05:00,15.1,3.3,29.38,NNE,22,0.0,0.0,59,0.00,CLR,,0.00,WeatherDisplay:10.37,2013-02-09 16:05:00,
2013-02-09 11:06:00,15.1,3.3,29.38,NNE,22,0.0,0.0,59,0.00,CLR,,0.00,WeatherDisplay:10.37,2013-02-09 16:06:00,
2013-02-09 11:09:00,15.1,3.3,29.38,NNE,22,0.0,0.0,59,0.00,CLR,,0.00,WeatherDisplay:10.37,2013-02-09 16:09:00,
2013-02-09 11:10:00,15.1,3.3,29.38,NNE,22,0.0,0.0,59,0.00,CLR,,0.00,WeatherDisplay:10.37,2013-02-09 16:10:00,
2013-02-09 11:12:00,15.1,3.3,29.38,NNE,22,0.0,0.0,59,0.00,CLR,,0.00,WeatherDisplay:10.37,2013-02-09 16:12:00,
2013-02-09 11:14:00,15.1,3.3,29.38,NNE,22,0.0,0.0,59,0.00,CLR,,0.00,WeatherDisplay:10.37,2013-02-09 16:14:00,
2013-02-09 11:15:00,15.1,3.3,29.38,NNE,22,0.0,0.0,59,0.00,CLR,,0.00,WeatherDisplay:10.37,2013-02-09 16:15:00,
2013-02-09 11:17:00,15.1,3.3,29.38,NNE,22,0.0,0.0,59,0.00,CLR,,0.00,WeatherDisplay:10.37,2013-02-09 16:17:00,
2013-02-09 11:19:00,15.1,3.3,29.38,NNE,22,0.0,0.0,59,0.00,CLR,,0.00,WeatherDisplay:10.37,2013-02-09 16:19:00,
2013-02-09 11:20:00,15.1,3.3,29.38,NNE,22,0.0,0.0,59,0.00,CLR,,0.00,WeatherDisplay:10.37,2013-02-09 16:20:00,
2013-02-09 11:23:00,15.1,3.3,29.38,NNE,22,0.0,0.0,59,0.00,CLR,,0.00,WeatherDisplay:10.37,2013-02-09 16:23:00,
2013-02-09 11:24:00,15.1,3.3,29.38,NNE,22,0.0,0.0,59,0.00,CLR,,0.00,WeatherDisplay:10.37,2013-02-09 16:24:00,
2013-02-09 11:25:00,15.1,3.3,29.38,NNE,22,0.0,0.0,59,0.00,CLR,,0.00,WeatherDisplay:10.37,2013-02-09 16:25:00,
2013-02-09 11:26:00,15.1,3.3,29.38,NNE,22,0.0,0.0,59,0.00,CLR,,0.00,WeatherDisplay:10.37,2013-02-09 16:26:00,
2013-02-09 11:28:00,15.1,3.3,29.38,NNE,22,0.0,0.0,59,0.00,CLR,,0.00,WeatherDisplay:10.37,2013-02-09 16:28:00,
2013-02-09 11:30:00,15.1,3.3,29.38,NNE,22,0.0,0.0,59,0.00,CLR,,0.00,WeatherDisplay:10.37,2013-02-09 16:30:00,
2013-02-09 11:31:00,15.1,3.3,29.38,NNE,22,0.0,0.0,59,0.00,CLR,,0.00,WeatherDisplay:10.37,2013-02-09 16:31:00,
2013-02-09 11:33:00,15.1,3.3,29.38,NNE,22,0.0,0.0,59,0.00,CLR,,0.00,WeatherDisplay:10.37,2013-02-09 16:33:00,
2013-02-09 11:35:00,15.1,3.3,29.38,NNE,22,0.0,0.0,59,0.00,CLR,,0.00,WeatherDisplay:10.37,2013-02-09 16:35:00,
2013-02-09 11:36:00,15.1,3.3,29.38,NNE,22,0.0,0.0,59,0.00,CLR,,0.00,WeatherDisplay:10.37,2013-02-09 16:36:00,
2013-02-09 11:38:00,15.1,3.3,29.38,NNE,22,0.0,0.0,59,0.00,CLR,,0.00,WeatherDisplay:10.37,2013-02-09 16:38:00,
2013-02-09 11:40:00,15.1,3.3,29.38,NNE,22,0.0,0.0,59,0.00,CLR,,0.00,WeatherDisplay:10.37,2013-02-09 16:40:00,
2013-02-09 11:41:00,15.1,3.3,29.38,NNE,22,0.0,0.0,59,0.00,CLR,,0.00,WeatherDisplay:10.37,2013-02-09 16:41:00,
2013-02-09 11:43:00,15.1,3.3,29.38,NNE,22,0.0,0.0,59,0.00,CLR,,0.00,WeatherDisplay:10.37,2013-02-09 16:43:00,
2013-02-09 11:45:00,15.1,3.3,29.38,NNE,22,0.0,0.0,59,0.00,CLR,,0.00,WeatherDisplay:10.37,2013-02-09 16:45:00,
2013-02-09 11:46:00,15.1,3.3,29.38,NNE,22,0.0,0.0,59,0.00,CLR,,0.00,WeatherDisplay:10.37,2013-02-09 16:46:00,
2013-02-09 11:48:00,15.1,3.3,29.38,NNE,22,0.0,0.0,59,0.00,CLR,,0.00,WeatherDisplay:10.37,2013-02-09 16:48:00,
2013-02-09 11:50:00,15.1,3.3,29.38,NNE,22,0.0,0.0,59,0.00,CLR,,0.00,WeatherDisplay:10.37,2013-02-09 16:50:00,
2013-02-09 11:51:00,15.1,3.3,29.38,NNE,22,0.0,0.0,59,0.00,CLR,,0.00,WeatherDisplay:10.37,2013-02-09 16:51:00,
2013-02-09 11:53:00,15.1,3.3,29.38,NNE,22,0.0,0.0,59,0.00,CLR,,0.00,WeatherDisplay:10.37,2013-02-09 16:53:00,
2013-02-09 11:55:00,15.1,3.3,29.38,NNE,22,0.0,0.0,59,0.00,CLR,,0.00,WeatherDisplay:10.37,2013-02-09 16:55:00,
2013-02-09 11:56:00,29.3,10.1,29.35,SSE,158,5.8,5.8,44,0.00,CLR,,0.00,WeatherDisplay:10.37,2013-02-09 16:56:00,
2013-02-09 11:58:00,15.1,3.3,29.38,NNE,22,0.0,0.0,59,0.00,CLR,,0.00,WeatherDisplay:10.37,2013-02-09 16:58:00,
2013-02-09 12:00:00,29.7,9.9,29.35,SSW,202,3.5,3.5,43,0.00,CLR,,0.00,WeatherDisplay:10.37,2013-02-09 17:00:00,
2013-02-09 12:02:00,29.5,9.2,29.35,WNW,292,3.5,3.5,42,0.00,CLR,,0.00,WeatherDisplay:10.37,2013-02-09 17:02:00,
2013-02-09 12:03:00,15.1,3.3,29.38,NNE,22,0.0,0.0,59,0.00,CLR,,0.00,WeatherDisplay:10.37,2013-02-09 17:03:00,
2013-02-09 12:05:00,15.1,3.3,29.38,NNE,22,0.0,0.0,59,0.00,CLR,,0.00,WeatherDisplay:10.37,2013-02-09 17:05:00,
2013-02-09 12:07:00,29.5,7.5,29.35,SSE,158,4.6,4.6,39,0.00,CLR,,0.00,WeatherDisplay:10.37,2013-02-09 17:07:00,
2013-02-09 12:08:00,30.2,8.2,29.35,SSE,158,3.5,3.5,39,0.00,CLR,,0.00,WeatherDisplay:10.37,2013-02-09 17:08:00,
2013-02-09 12:10:00,15.1,3.3,29.38,NNE,22,0.0,0.0,59,0.00,CLR,,0.00,WeatherDisplay:10.37,2013-02-09 17:10:00,
2013-02-09 12:12:00,15.1,3.3,29.38,NNE,22,0.0,0.0,59,0.00,CLR,,0.00,WeatherDisplay:10.37,2013-02-09 17:12:00,
2013-02-09 12:13:00,30.4,6.6,29.35,SSE,158,2.9,0.0,36,0.00,CLR,,0.00,WeatherDisplay:10.37,2013-02-09 17:13:00,
2013-02-09 12:15:00,15.1,3.3,29.38,NNE,22,0.0,0.0,59,0.00,CLR,,0.00,WeatherDisplay:10.37,2013-02-09 17:15:00,
2013-02-09 12:16:00,30.4,6.6,29.35,SSE,158,4.6,4.6,36,0.00,CLR,,0.00,WeatherDisplay:10.37,2013-02-09 17:16:00,
2013-02-09 12:17:00,15.1,3.3,29.38,NNE,22,0.0,0.0,59,0.00,CLR,,0.00,WeatherDisplay:10.37,2013-02-09 17:17:00,
2013-02-09 12:18:00,15.1,3.3,29.38,NNE,22,0.0,0.0,59,0.00,CLR,,0.00,WeatherDisplay:10.37,2013-02-09 17:18:00,
2013-02-09 12:20:00,15.1,3.3,29.38,NNE,22,0.0,0.0,59,0.00,CLR,,0.00,WeatherDisplay:10.37,2013-02-09 17:20:00,
2013-02-09 12:21:00,15.1,3.3,29.38,NNE,22,0.0,0.0,59,0.00,CLR,,0.00,WeatherDisplay:10.37,2013-02-09 17:21:00,
2013-02-09 12:22:00,31.1,6.6,29.35,SSE,158,2.9,0.0,35,0.00,CLR,,0.00,WeatherDisplay:10.37,2013-02-09 17:22:00,
2013-02-09 12:24:00,31.6,7.7,29.35,SSE,158,4.6,4.6,36,0.00,CLR,,0.00,WeatherDisplay:10.37,2013-02-09 17:24:00,
2013-02-09 12:25:00,32.2,8.8,29.35,ESE,112,5.8,5.8,37,0.00,CLR,,0.00,WeatherDisplay:10.37,2013-02-09 17:25:00,
2013-02-09 12:26:00,15.1,3.3,29.38,NNE,22,0.0,0.0,59,0.00,CLR,,0.00,WeatherDisplay:10.37,2013-02-09 17:26:00,
2013-02-09 12:27:00,31.6,6.4,29.35,SSE,158,3.5,3.5,34,0.00,CLR,,0.00,WeatherDisplay:10.37,2013-02-09 17:27:00,
2013-02-09 12:29:00,31.8,6.6,29.35,SSE,158,5.6,5.6,34,0.00,CLR,,0.00,WeatherDisplay:10.37,2013-02-09 17:29:00,
2013-02-09 12:30:00,32.0,7.4,29.35,SSE,158,6.9,6.9,35,0.00,CLR,,0.00,WeatherDisplay:10.37,2013-02-09 17:30:00,
2013-02-09 12:31:00,15.1,3.3,29.38,NNE,22,0.0,0.0,59,0.00,CLR,,0.00,WeatherDisplay:10.37,2013-02-09 17:31:00,
2013-02-09 12:32:00,32.0,7.4,29.35,SSW,202,5.8,5.8,35,0.00,CLR,,0.00,WeatherDisplay:10.37,2013-02-09 17:32:00,
2013-02-09 12:34:00,15.1,3.3,29.38,NNE,22,0.0,0.0,59,0.00,CLR,,0.00,WeatherDisplay:10.37,2013-02-09 17:34:00,
2013-02-09 12:35:00,15.1,3.3,29.38,NNE,22,0.0,0.0,59,0.00,CLR,,0.00,WeatherDisplay:10.37,2013-02-09 17:35:00,
2013-02-09 12:36:00,15.1,3.3,29.38,NNE,22,0.0,0.0,59,0.00,CLR,,0.00,WeatherDisplay:10.37,2013-02-09 17:36:00,
2013-02-09 12:37:00,31.8,7.9,29.35,SSE,158,5.8,5.8,36,0.00,CLR,,0.00,WeatherDisplay:10.37,2013-02-09 17:37:00,
2013-02-09 12:39:00,15.1,3.3,29.38,NNE,22,0.0,0.0,59,0.00,CLR,,0.00,WeatherDisplay:10.37,2013-02-09 17:39:00,
2013-02-09 12:40:00,15.1,3.3,29.38,NNE,22,0.0,0.0,59,0.00,CLR,,0.00,WeatherDisplay:10.37,2013-02-09 17:40:00,
2013-02-09 12:41:00,31.8,7.9,29.35,SSE,158,8.1,8.1,36,0.00,CLR,,0.00,WeatherDisplay:10.37,2013-02-09 17:41:00,
2013-02-09 12:42:00,31.8,7.9,29.35,SSE,158,8.1,8.1,36,0.00,CLR,,0.00,WeatherDisplay:10.37,2013-02-09 17:42:00,
2013-02-09 12:44:00,31.8,7.9,29.35,SSE,158,4.6,4.6,36,0.00,CLR,,0.00,WeatherDisplay:10.37,2013-02-09 17:44:00,
2013-02-09 12:45:00,31.8,7.9,29.35,WSW,248,5.8,5.8,36,0.00,CLR,,0.00,WeatherDisplay:10.37,2013-02-09 17:45:00,
2013-02-09 12:46:00,31.8,7.9,29.35,SSE,158,6.7,6.7,36,0.00,CLR,,0.00,WeatherDisplay:10.37,2013-02-09 17:46:00,
2013-02-09 12:47:00,31.8,7.9,29.35,SSE,158,6.9,6.9,36,0.00,CLR,,0.00,WeatherDisplay:10.37,2013-02-09 17:47:00,
2013-02-09 12:49:00,32.5,9.1,29.35,SSE,158,8.1,8.1,37,0.00,CLR,,0.00,WeatherDisplay:10.37,2013-02-09 17:49:00,
2013-02-09 12:51:00,32.7,9.9,29.35,SSE,158,8.5,8.5,38,0.00,CLR,,0.00,WeatherDisplay:10.37,2013-02-09 17:51:00,
2013-02-09 12:52:00,32.7,9.9,29.35,SSE,158,9.2,9.2,38,0.00,CLR,,0.00,WeatherDisplay:10.37,2013-02-09 17:52:00,
2013-02-09 12:54:00,32.2,7.6,29.35,SSE,158,8.7,8.7,35,0.00,CLR,,0.00,WeatherDisplay:10.37,2013-02-09 17:54:00,
2013-02-09 12:56:00,32.2,7.6,29.35,SSE,158,9.2,9.2,35,0.00,CLR,,0.00,WeatherDisplay:10.37,2013-02-09 17:56:00,
2013-02-09 12:57:00,32.2,7.6,29.35,SSE,158,9.2,9.2,35,0.00,CLR,,0.00,WeatherDisplay:10.37,2013-02-09 17:57:00,
2013-02-09 12:59:00,32.2,6.9,29.35,SSE,158,8.1,8.1,34,0.00,CLR,,0.00,WeatherDisplay:10.37,2013-02-09 17:59:00,
2013-02-09 13:01:00,32.2,6.9,29.35,SSE,158,5.8,5.8,34,0.00,CLR,,0.00,WeatherDisplay:10.37,2013-02-09 18:01:00,
2013-02-09 13:02:00,32.5,7.2,29.35,SSE,158,4.9,4.9,34,0.00,CLR,,0.00,WeatherDisplay:10.37,2013-02-09 18:02:00,
2013-02-09 13:04:00,33.1,7.7,29.35,SSE,158,3.6,3.6,34,0.00,CLR,,0.00,WeatherDisplay:10.37,2013-02-09 18:04:00,
2013-02-09 13:06:00,33.1,7.7,29.35,ENE,68,5.8,5.8,34,0.00,CLR,,0.00,WeatherDisplay:10.37,2013-02-09 18:06:00,
2013-02-09 13:07:00,33.1,7.7,29.35,SSE,158,6.2,6.2,34,0.00,CLR,,0.00,WeatherDisplay:10.37,2013-02-09 18:07:00,
2013-02-09 13:08:00,33.1,7.7,29.35,SSE,158,7.8,7.8,34,0.00,CLR,,0.00,WeatherDisplay:10.37,2013-02-09 18:08:00,
2013-02-09 13:09:00,33.1,7.7,29.35,SSE,158,8.1,8.1,34,0.00,CLR,,0.00,WeatherDisplay:10.37,2013-02-09 18:09:00,
2013-02-09 13:12:00,32.5,5.9,29.35,SSE,158,8.1,8.1,32,0.00,CLR,,0.00,WeatherDisplay:10.37,2013-02-09 18:12:00,
2013-02-09 13:13:00,32.5,5.9,29.35,SSE,158,8.1,8.1,32,0.00,CLR,,0.00,WeatherDisplay:10.37,2013-02-09 18:13:00,
2013-02-09 13:14:00,32.5,5.9,29.35,SSE,158,6.9,6.9,32,0.00,CLR,,0.00,WeatherDisplay:10.37,2013-02-09 18:14:00,
2013-02-09 13:17:00,33.3,6.5,29.35,SSE,158,6.9,6.9,32,0.00,CLR,,0.00,WeatherDisplay:10.37,2013-02-09 18:17:00,
2013-02-09 13:18:00,33.3,6.5,29.35,SSE,158,5.4,5.4,32,0.00,CLR,,0.00,WeatherDisplay:10.37,2013-02-09 18:18:00,
2013-02-09 13:19:00,33.3,6.5,29.35,SSE,158,5.8,5.8,32,0.00,CLR,,0.00,WeatherDisplay:10.37,2013-02-09 18:19:00,
2013-02-09 13:22:00,33.3,5.8,29.35,SSE,158,6.9,6.9,31,0.00,CLR,,0.00,WeatherDisplay:10.37,2013-02-09 18:22:00,
2013-02-09 13:23:00,33.4,6.7,29.35,SE,135,5.8,5.8,32,0.00,CLR,,0.00,WeatherDisplay:10.37,2013-02-09 18:23:00,
2013-02-09 13:24:00,33.4,6.0,29.35,SSE,158,5.8,5.8,31,0.00,CLR,,0.00,WeatherDisplay:10.37,2013-02-09 18:24:00,
2013-02-09 13:27:00,33.6,6.8,29.35,SSW,202,4.9,4.9,32,0.00,CLR,,0.00,WeatherDisplay:10.37,2013-02-09 18:27:00,
2013-02-09 13:28:00,33.6,6.8,29.35,SSW,202,4.9,4.9,32,0.00,CLR,,0.00,WeatherDisplay:10.37,2013-02-09 18:28:00,
2013-02-09 13:29:00,33.8,6.3,29.35,SSW,202,4.9,4.9,31,0.00,CLR,,0.00,WeatherDisplay:10.37,2013-02-09 18:29:00,
2013-02-09 13:32:00,33.6,6.1,29.35,SSW,202,4.9,4.9,31,0.00,CLR,,0.00,WeatherDisplay:10.37,2013-02-09 18:32:00,
2013-02-09 13:33:00,33.4,6.0,29.35,SSW,202,4.9,4.9,31,0.00,CLR,,0.00,WeatherDisplay:10.37,2013-02-09 18:33:00,
2013-02-09 13:34:00,33.4,6.0,29.35,SSW,202,4.9,4.9,31,0.00,CLR,,0.00,WeatherDisplay:10.37,2013-02-09 18:34:00,
2013-02-09 13:37:00,33.1,5.7,29.35,SSW,202,4.9,4.9,31,0.00,CLR,,0.00,WeatherDisplay:10.37,2013-02-09 18:37:00,
2013-02-09 13:38:00,32.9,5.5,29.35,SSW,202,4.9,4.9,31,0.00,CLR,,0.00,WeatherDisplay:10.37,2013-02-09 18:38:00,
2013-02-09 13:39:00,32.9,5.5,29.35,SSW,202,4.9,4.9,31,0.00,CLR,,0.00,WeatherDisplay:10.37,2013-02-09 18:39:00,
2013-02-09 13:42:00,32.5,5.2,29.35,SSW,202,4.9,4.9,31,0.00,CLR,,0.00,WeatherDisplay:10.37,2013-02-09 18:42:00,
2013-02-09 13:43:00,32.2,4.9,29.35,SSW,202,4.9,4.9,31,0.00,CLR,,0.00,WeatherDisplay:10.37,2013-02-09 18:43:00,
2013-02-09 13:44:00,32.2,4.9,29.35,SSW,202,4.9,4.9,31,0.00,CLR,,0.00,WeatherDisplay:10.37,2013-02-09 18:44:00,
2013-02-09 13:47:00,32.9,5.5,29.32,SSW,202,4.9,4.9,31,0.00,CLR,,0.00,WeatherDisplay:10.37,2013-02-09 18:47:00,
2013-02-09 13:48:00,32.7,5.4,29.32,SSW,202,4.9,4.9,31,0.00,CLR,,0.00,WeatherDisplay:10.37,2013-02-09 18:48:00,
2013-02-09 13:49:00,32.7,5.4,29.32,SSW,202,4.9,4.9,31,0.00,CLR,,0.00,WeatherDisplay:10.37,2013-02-09 18:49:00,
2013-02-09 13:52:00,32.2,4.9,29.32,SSW,202,4.9,4.9,31,0.00,CLR,,0.00,WeatherDisplay:10.37,2013-02-09 18:52:00,
2013-02-09 13:53:00,32.4,5.0,29.32,SSW,202,4.9,4.9,31,0.00,CLR,,0.00,WeatherDisplay:10.37,2013-02-09 18:53:00,
2013-02-09 13:54:00,32.5,5.2,29.32,SSW,202,4.9,4.9,31,0.00,CLR,,0.00,WeatherDisplay:10.37,2013-02-09 18:54:00,
2013-02-09 13:57:00,32.2,4.9,29.32,SSE,158,5.8,5.8,31,0.00,CLR,,0.00,WeatherDisplay:10.37,2013-02-09 18:57:00,
2013-02-09 13:58:00,31.8,4.6,29.32,SSE,158,3.5,5.4,31,0.00,CLR,,0.00,WeatherDisplay:10.37,2013-02-09 18:58:00,
2013-02-09 13:59:00,31.8,4.6,29.32,SSW,202,3.5,3.5,31,0.00,CLR,,0.00,WeatherDisplay:10.37,2013-02-09 18:59:00,
2013-02-09 14:02:00,32.5,5.2,29.32,SSW,202,1.1,2.4,31,0.00,CLR,,0.00,WeatherDisplay:10.37,2013-02-09 19:02:00,
2013-02-09 14:04:00,32.5,5.2,29.32,SSW,202,1.1,2.4,31,0.00,CLR,,0.00,WeatherDisplay:10.37,2013-02-09 19:04:00,
2013-02-09 14:07:00,33.3,5.8,29.32,SSW,202,1.1,2.4,31,0.00,CLR,,0.00,WeatherDisplay:10.37,2013-02-09 19:07:00,
2013-02-09 14:09:00,33.5,6.0,29.32,SSW,202,2.0,2.0,31,0.00,CLR,,0.00,WeatherDisplay:10.37,2013-02-09 19:09:00,
2013-02-09 14:10:00,33.8,5.6,29.32,SSW,202,1.1,2.4,30,0.00,CLR,,0.00,WeatherDisplay:10.37,2013-02-09 19:10:00,
2013-02-09 14:12:00,34.5,6.2,29.32,SSE,158,8.1,8.1,30,0.00,CLR,,0.00,WeatherDisplay:10.37,2013-02-09 19:12:00,
2013-02-09 14:14:00,34.5,6.2,29.32,SSE,158,7.1,7.1,30,0.00,CLR,,0.00,WeatherDisplay:10.37,2013-02-09 19:14:00,
2013-02-09 14:15:00,34.3,6.1,29.32,SSE,158,6.9,6.9,30,0.00,CLR,,0.00,WeatherDisplay:10.37,2013-02-09 19:15:00,
2013-02-09 14:17:00,35.2,6.8,29.32,SSE,158,2.9,2.9,30,0.00,CLR,,0.00,WeatherDisplay:10.37,2013-02-09 19:17:00,
2013-02-09 14:19:00,35.1,6.7,29.32,SSE,158,6.0,6.0,30,0.00,CLR,,0.00,WeatherDisplay:10.37,2013-02-09 19:19:00,
2013-02-09 14:20:00,35.1,6.7,29.32,SSE,158,7.1,7.1,30,0.00,CLR,,0.00,WeatherDisplay:10.37,2013-02-09 19:20:00,
2013-02-09 14:23:00,35.4,7.0,29.32,ESE,112,8.1,8.1,30,0.00,CLR,,0.00,WeatherDisplay:10.37,2013-02-09 19:23:00,
2013-02-09 14:24:00,35.4,7.0,29.32,SSE,158,6.9,6.9,30,0.00,CLR,,0.00,WeatherDisplay:10.37,2013-02-09 19:24:00,
2013-02-09 14:25:00,35.4,7.0,29.32,ENE,68,6.9,6.9,30,0.00,CLR,,0.00,WeatherDisplay:10.37,2013-02-09 19:25:00,
2013-02-09 14:28:00,35.8,6.6,29.32,SSE,158,3.5,3.5,29,0.00,CLR,,0.00,WeatherDisplay:10.37,2013-02-09 19:28:00,
2013-02-09 14:29:00,36.1,6.9,29.32,SSE,158,3.5,3.5,29,0.00,CLR,,0.00,WeatherDisplay:10.37,2013-02-09 19:29:00,
2013-02-09 14:30:00,36.5,7.2,29.32,SSE,158,3.5,3.5,29,0.00,CLR,,0.00,WeatherDisplay:10.37,2013-02-09 19:30:00,
2013-02-09 14:33:00,36.5,5.6,29.32,SSE,158,5.8,5.8,27,0.00,CLR,,0.00,WeatherDisplay:10.37,2013-02-09 19:33:00,
2013-02-09 14:34:00,36.5,7.2,29.32,SSE,158,8.1,8.1,29,0.00,CLR,,0.00,WeatherDisplay:10.37,2013-02-09 19:34:00,
2013-02-09 14:35:00,36.5,7.2,29.32,SSE,158,8.1,8.1,29,0.00,CLR,,0.00,WeatherDisplay:10.37,2013-02-09 19:35:00,
2013-02-09 14:41:00,15.1,3.3,29.38,NNE,22,0.0,0.0,59,0.00,CLR,,0.00,WeatherDisplay:10.37,2013-02-09 19:41:00,
2013-02-09 15:12:00,15.1,3.3,29.38,NNE,22,0.0,0.0,59,0.00,CLR,,0.00,WeatherDisplay:10.37,2013-02-09 20:12:00,
2013-02-09 15:15:00,36.5,7.2,29.32,SSE,158,6.9,7.1,29,0.00,CLR,,0.00,WeatherDisplay:10.37,2013-02-09 20:15:00,
2013-02-09 15:16:00,36.5,7.2,29.32,SSE,158,6.9,7.1,29,0.00,CLR,,0.00,WeatherDisplay:10.37,2013-02-09 20:16:00,
2013-02-09 15:18:00,36.5,7.2,29.32,SSE,158,5.8,6.4,29,0.00,CLR,,0.00,WeatherDisplay:10.37,2013-02-09 20:18:00,
2013-02-09 15:20:00,34.9,2.6,29.32,SSE,158,6.9,6.9,25,0.00,CLR,,0.00,WeatherDisplay:10.37,2013-02-09 20:20:00,
2013-02-09 15:21:00,35.1,2.7,29.32,SSW,202,4.6,4.6,25,0.00,CLR,,0.00,WeatherDisplay:10.37,2013-02-09 20:21:00,
2013-02-09 15:23:00,36.1,2.8,29.32,SSW,202,2.6,4.3,24,0.00,CLR,,0.00,WeatherDisplay:10.37,2013-02-09 20:23:00,
2013-02-09 15:25:00,36.3,2.9,29.32,SSW,202,2.6,4.3,24,0.00,CLR,,0.00,WeatherDisplay:10.37,2013-02-09 20:25:00,
2013-02-09 15:26:00,36.7,3.2,29.32,SSW,202,2.6,4.3,24,0.00,CLR,,0.00,WeatherDisplay:10.37,2013-02-09 20:26:00,
2013-02-09 15:28:00,36.3,2.9,29.32,SSW,202,2.6,4.3,24,0.00,CLR,,0.00,WeatherDisplay:10.37,2013-02-09 20:28:00,
2013-02-09 15:30:00,35.1,2.7,29.32,SSW,202,2.6,4.3,25,0.00,CLR,,0.00,WeatherDisplay:10.37,2013-02-09 20:30:00,
2013-02-09 15:31:00,35.1,2.7,29.32,SSW,202,2.6,4.3,25,0.00,CLR,,0.00,WeatherDisplay:10.37,2013-02-09 20:31:00,
2013-02-09 15:33:00,35.1,2.7,29.32,SSE,158,10.2,10.2,25,0.00,CLR,,0.00,WeatherDisplay:10.37,2013-02-09 20:33:00,
2013-02-09 15:36:00,34.9,2.6,29.32,SSE,158,8.1,8.1,25,0.00,CLR,,0.00,WeatherDisplay:10.37,2013-02-09 20:36:00,
2013-02-09 15:39:00,35.8,2.4,29.32,SSE,158,5.8,6.2,24,0.00,CLR,,0.00,WeatherDisplay:10.37,2013-02-09 20:39:00,
2013-02-09 15:41:00,35.8,2.4,29.32,SSE,158,8.1,8.1,24,0.00,CLR,,0.00,WeatherDisplay:10.37,2013-02-09 20:41:00,
2013-02-09 15:42:00,35.1,2.7,29.32,SSE,158,8.1,8.1,25,0.00,CLR,,0.00,WeatherDisplay:10.37,2013-02-09 20:42:00,
2013-02-09 15:44:00,35.1,2.7,29.32,SSE,158,7.1,7.1,25,0.00,CLR,,0.00,WeatherDisplay:10.37,2013-02-09 20:44:00,
2013-02-09 15:46:00,35.1,2.7,29.32,SSE,158,6.9,6.9,25,0.00,CLR,,0.00,WeatherDisplay:10.37,2013-02-09 20:46:00,
2013-02-09 15:47:00,35.4,3.0,29.32,SSE,158,6.9,6.9,25,0.00,CLR,,0.00,WeatherDisplay:10.37,2013-02-09 20:47:00,
2013-02-09 15:49:00,36.1,2.8,29.32,SSE,158,5.8,5.8,24,0.00,CLR,,0.00,WeatherDisplay:10.37,2013-02-09 20:49:00,
2013-02-09 15:51:00,35.2,2.9,29.32,SSE,158,4.9,4.9,25,0.00,CLR,,0.00,WeatherDisplay:10.37,2013-02-09 20:51:00,
2013-02-09 15:52:00,35.6,2.3,29.32,SSE,158,4.9,4.9,24,0.00,CLR,,0.00,WeatherDisplay:10.37,2013-02-09 20:52:00,
2013-02-09 15:54:00,36.3,2.9,29.32,SSE,158,4.9,4.9,24,0.00,CLR,,0.00,WeatherDisplay:10.37,2013-02-09 20:54:00,
2013-02-09 15:56:00,36.3,2.9,29.32,SSE,158,4.9,4.9,24,0.00,CLR,,0.00,WeatherDisplay:10.37,2013-02-09 20:56:00,
2013-02-09 15:57:00,36.3,2.9,29.32,SSE,158,4.9,4.9,24,0.00,CLR,,0.00,WeatherDisplay:10.37,2013-02-09 20:57:00,
2013-02-09 15:59:00,35.1,2.7,29.29,SSE,158,4.9,4.9,25,0.00,CLR,,0.00,WeatherDisplay:10.37,2013-02-09 20:59:00,
2013-02-09 16:01:00,34.9,2.6,29.29,SSE,158,4.9,4.9,25,0.00,CLR,,0.00,WeatherDisplay:10.37,2013-02-09 21:01:00,
2013-02-09 16:02:00,36.0,2.6,29.29,SSE,158,4.9,4.9,24,0.00,CLR,,0.00,WeatherDisplay:10.37,2013-02-09 21:02:00,
2013-02-09 16:05:00,36.1,2.8,29.29,SSE,158,4.9,4.9,24,0.00,CLR,,0.00,WeatherDisplay:10.37,2013-02-09 21:05:00,
2013-02-09 16:06:00,35.8,2.4,29.29,SSE,158,4.9,4.9,24,0.00,CLR,,0.00,WeatherDisplay:10.37,2013-02-09 21:06:00,
2013-02-09 16:07:00,35.4,3.0,29.29,SSE,158,4.9,4.9,25,0.00,CLR,,0.00,WeatherDisplay:10.37,2013-02-09 21:07:00,
2013-02-09 16:08:00,35.4,3.0,29.29,SSE,158,4.9,4.9,25,0.00,CLR,,0.00,WeatherDisplay:10.37,2013-02-09 21:08:00,
2013-02-09 16:10:00,34.5,2.2,29.29,SSE,158,4.9,4.9,25,0.00,CLR,,0.00,WeatherDisplay:10.37,2013-02-09 21:10:00,
2013-02-09 16:12:00,33.8,1.6,29.29,SSE,158,8.1,8.1,25,0.00,CLR,,0.00,WeatherDisplay:10.37,2013-02-09 21:12:00,
2013-02-09 16:13:00,33.6,1.5,29.29,SSE,158,8.1,8.1,25,0.00,CLR,,0.00,WeatherDisplay:10.37,2013-02-09 21:13:00,
2013-02-09 16:15:00,33.3,1.2,29.29,SSE,158,8.1,8.1,25,0.00,CLR,,0.00,WeatherDisplay:10.37,2013-02-09 21:15:00,
2013-02-09 16:17:00,32.5,0.5,29.29,SSE,158,7.6,7.6,25,0.00,CLR,,0.00,WeatherDisplay:10.37,2013-02-09 21:17:00,
2013-02-09 16:18:00,32.5,0.5,29.29,SSE,158,8.1,8.1,25,0.00,CLR,,0.00,WeatherDisplay:10.37,2013-02-09 21:18:00,
2013-02-09 16:20:00,32.5,0.5,29.29,SSE,158,6.9,6.9,25,0.00,CLR,,0.00,WeatherDisplay:10.37,2013-02-09 21:20:00,
2013-02-09 16:22:00,33.3,1.2,29.29,SSE,158,8.1,8.1,25,0.00,CLR,,0.00,WeatherDisplay:10.37,2013-02-09 21:22:00,
2013-02-09 16:23:00,34.0,1.8,29.29,SSW,202,4.6,4.6,25,0.00,CLR,,0.00,WeatherDisplay:10.37,2013-02-09 21:23:00,
2013-02-09 16:25:00,34.5,2.2,29.29,ENE,68,3.5,3.5,25,0.00,CLR,,0.00,WeatherDisplay:10.37,2013-02-09 21:25:00,
2013-02-09 16:27:00,34.2,1.9,29.29,ENE,68,3.5,3.5,25,0.00,CLR,,0.00,WeatherDisplay:10.37,2013-02-09 21:27:00,
2013-02-09 16:28:00,33.8,1.6,29.29,ENE,68,3.5,3.5,25,0.00,CLR,,0.00,WeatherDisplay:10.37,2013-02-09 21:28:00,
2013-02-09 16:31:00,34.0,1.8,29.29,ESE,112,2.4,2.4,25,0.00,CLR,,0.00,WeatherDisplay:10.37,2013-02-09 21:31:00,
2013-02-09 16:32:00,34.3,2.1,29.29,SSE,158,3.8,3.8,25,0.00,CLR,,0.00,WeatherDisplay:10.37,2013-02-09 21:32:00,
2013-02-09 16:33:00,34.0,1.8,29.29,SSE,158,4.6,4.6,25,0.00,CLR,,0.00,WeatherDisplay:10.37,2013-02-09 21:33:00,
2013-02-09 16:34:00,34.0,1.8,29.29,SSE,158,4.6,4.6,25,0.00,CLR,,0.00,WeatherDisplay:10.37,2013-02-09 21:34:00,
2013-02-09 16:36:00,33.6,1.5,29.29,SSE,158,6.2,6.2,25,0.00,CLR,,0.00,WeatherDisplay:10.37,2013-02-09 21:36:00,
2013-02-09 16:37:00,33.8,1.6,29.29,SSE,158,6.2,6.2,25,0.00,CLR,,0.00,WeatherDisplay:10.37,2013-02-09 21:37:00,
2013-02-09 16:38:00,33.8,1.6,29.29,SSE,158,6.2,6.2,25,0.00,CLR,,0.00,WeatherDisplay:10.37,2013-02-09 21:38:00,
2013-02-09 16:39:00,33.6,1.5,29.29,SSE,158,6.2,6.2,25,0.00,CLR,,0.00,WeatherDisplay:10.37,2013-02-09 21:39:00,
2013-02-09 16:41:00,33.6,1.5,29.29,SSE,158,6.2,6.2,25,0.00,CLR,,0.00,WeatherDisplay:10.37,2013-02-09 21:41:00,
2013-02-09 16:42:00,33.8,1.6,29.29,SSE,158,6.2,6.2,25,0.00,CLR,,0.00,WeatherDisplay:10.37,2013-02-09 21:42:00,
2013-02-09 16:43:00,33.6,1.5,29.29,SSE,158,6.2,6.2,25,0.00,CLR,,0.00,WeatherDisplay:10.37,2013-02-09 21:43:00,
2013-02-09 16:44:00,33.6,1.5,29.29,SSE,158,6.2,6.2,25,0.00,CLR,,0.00,WeatherDisplay:10.37,2013-02-09 21:44:00,
2013-02-09 16:46:00,32.7,0.7,29.29,SSE,158,6.2,6.2,25,0.00,CLR,,0.00,WeatherDisplay:10.37,2013-02-09 21:46:00,
2013-02-09 16:47:00,32.7,0.7,29.29,SSE,158,6.2,6.2,25,0.00,CLR,,0.00,WeatherDisplay:10.37,2013-02-09 21:47:00,
2013-02-09 16:48:00,32.7,0.7,29.29,SSE,158,6.2,6.2,25,0.00,CLR,,0.00,WeatherDisplay:10.37,2013-02-09 21:48:00,
2013-02-09 16:49:00,32.7,0.7,29.29,SSE,158,6.2,6.2,25,0.00,CLR,,0.00,WeatherDisplay:10.37,2013-02-09 21:49:00,
2013-02-09 16:51:00,32.4,0.4,29.29,SSE,158,6.2,6.2,25,0.00,CLR,,0.00,WeatherDisplay:10.37,2013-02-09 21:51:00,
2013-02-09 16:53:00,32.4,0.4,29.29,SSE,158,6.2,6.2,25,0.00,CLR,,0.00,WeatherDisplay:10.37,2013-02-09 21:53:00,
2013-02-09 16:54:00,32.4,2.8,29.29,SSE,158,6.2,6.2,28,0.00,CLR,,0.00,WeatherDisplay:10.37,2013-02-09 21:54:00,
2013-02-09 16:56:00,32.4,2.8,29.29,SSE,158,6.2,6.2,28,0.00,CLR,,0.00,WeatherDisplay:10.37,2013-02-09 21:56:00,
2013-02-09 16:58:00,32.2,2.7,29.29,SSE,158,6.2,6.2,28,0.00,CLR,,0.00,WeatherDisplay:10.37,2013-02-09 21:58:00,
2013-02-09 16:59:00,32.2,2.7,29.29,SSE,158,6.2,6.2,28,0.00,CLR,,0.00,WeatherDisplay:10.37,2013-02-09 21:59:00,
2013-02-09 17:00:00,32.0,2.5,29.29,SSE,158,6.2,6.2,28,0.00,CLR,,0.00,WeatherDisplay:10.37,2013-02-09 22:00:00,
2013-02-09 17:01:00,31.8,2.4,29.29,SSE,158,6.2,6.2,28,0.00,CLR,,0.00,WeatherDisplay:10.37,2013-02-09 22:01:00,
2013-02-09 17:03:00,32.0,2.5,29.29,SSE,158,6.2,6.2,28,0.00,CLR,,0.00,WeatherDisplay:10.37,2013-02-09 22:03:00,
2013-02-09 17:04:00,32.2,2.7,29.29,SSE,158,6.2,6.2,28,0.00,CLR,,0.00,WeatherDisplay:10.37,2013-02-09 22:04:00,
2013-02-09 17:05:00,32.2,2.7,29.29,SSE,158,6.2,6.2,28,0.00,CLR,,0.00,WeatherDisplay:10.37,2013-02-09 22:05:00,
2013-02-09 17:07:00,32.2,2.7,29.29,SSE,158,6.2,6.2,28,0.00,CLR,,0.00,WeatherDisplay:10.37,2013-02-09 22:07:00,
2013-02-09 17:08:00,31.8,2.4,29.29,SSE,158,6.2,6.2,28,0.00,CLR,,0.00,WeatherDisplay:10.37,2013-02-09 22:08:00,
2013-02-09 17:09:00,31.6,2.2,29.29,SSE,158,6.2,6.2,28,0.00,CLR,,0.00,WeatherDisplay:10.37,2013-02-09 22:09:00,
2013-02-09 17:10:00,31.6,2.2,29.29,SSE,158,6.2,6.2,28,0.00,CLR,,0.00,WeatherDisplay:10.37,2013-02-09 22:10:00,
2013-02-09 17:12:00,31.6,2.2,29.29,SSW,202,5.8,5.8,28,0.00,CLR,,0.00,WeatherDisplay:10.37,2013-02-09 22:12:00,
2013-02-09 17:13:00,31.6,2.2,29.29,ESE,112,5.8,5.8,28,0.00,CLR,,0.00,WeatherDisplay:10.37,2013-02-09 22:13:00,
2013-02-09 17:14:00,31.6,2.2,29.29,SE,135,4.7,4.7,28,0.00,CLR,,0.00,WeatherDisplay:10.37,2013-02-09 22:14:00,
2013-02-09 17:15:00,31.1,1.7,29.29,SSE,158,6.2,6.2,28,0.00,CLR,,0.00,WeatherDisplay:10.37,2013-02-09 22:15:00,
2013-02-09 17:17:00,30.7,1.4,29.29,ESE,112,5.8,5.8,28,0.00,CLR,,0.00,WeatherDisplay:10.37,2013-02-09 22:17:00,
2013-02-09 17:18:00,30.9,1.6,29.29,ESE,112,4.6,4.6,28,0.00,CLR,,0.00,WeatherDisplay:10.37,2013-02-09 22:18:00,
2013-02-09 17:19:00,30.9,1.6,29.29,SSE,158,8.1,8.1,28,0.00,CLR,,0.00,WeatherDisplay:10.37,2013-02-09 22:19:00,
2013-02-09 17:21:00,31.1,3.2,29.29,SSE,158,4.6,4.6,30,0.00,CLR,,0.00,WeatherDisplay:10.37,2013-02-09 22:21:00,
2013-02-09 17:22:00,31.1,3.2,29.29,SE,135,3.5,3.5,30,0.00,CLR,,0.00,WeatherDisplay:10.37,2013-02-09 22:22:00,
2013-02-09 17:23:00,31.1,3.2,29.29,SSE,158,4.0,4.0,30,0.00,CLR,,0.00,WeatherDisplay:10.37,2013-02-09 22:23:00,
2013-02-09 17:25:00,30.9,3.1,29.29,SSE,158,4.6,4.6,30,0.00,CLR,,0.00,WeatherDisplay:10.37,2013-02-09 22:25:00,
2013-02-09 17:26:00,30.7,2.9,29.29,SSE,158,3.6,4.5,30,0.00,CLR,,0.00,WeatherDisplay:10.37,2013-02-09 22:26:00,
2013-02-09 17:27:00,30.6,2.7,29.29,SSE,158,3.5,3.8,30,0.00,CLR,,0.00,WeatherDisplay:10.37,2013-02-09 22:27:00,
2013-02-09 17:28:00,30.6,2.7,29.29,SE,135,3.5,3.8,30,0.00,CLR,,0.00,WeatherDisplay:10.37,2013-02-09 22:28:00,
2013-02-09 17:30:00,30.4,2.6,29.29,SSE,158,5.8,5.8,30,0.00,CLR,,0.00,WeatherDisplay:10.37,2013-02-09 22:30:00,
2013-02-09 17:31:00,30.4,2.6,29.29,SSE,158,6.9,6.9,30,0.00,CLR,,0.00,WeatherDisplay:10.37,2013-02-09 22:31:00,
2013-02-09 17:32:00,30.4,2.6,29.29,SSE,158,3.5,3.5,30,0.00,CLR,,0.00,WeatherDisplay:10.37,2013-02-09 22:32:00,
2013-02-09 17:33:00,30.4,2.6,29.29,SSE,158,3.5,3.5,30,0.00,CLR,,0.00,WeatherDisplay:10.37,2013-02-09 22:33:00,
2013-02-09 17:35:00,30.2,2.4,29.29,SSE,158,3.5,3.5,30,0.00,CLR,,0.00,WeatherDisplay:10.37,2013-02-09 22:35:00,
2013-02-09 17:36:00,30.2,2.4,29.29,SSE,158,3.5,3.5,30,0.00,CLR,,0.00,WeatherDisplay:10.37,2013-02-09 22:36:00,
2013-02-09 17:47:00,15.1,3.3,29.38,NNE,22,0.0,0.0,59,0.00,CLR,,0.00,WeatherDisplay:10.37,2013-02-09 22:47:00,
2013-02-09 17:51:00,28.8,1.9,29.29,SSE,158,3.5,3.5,31,0.00,CLR,,0.00,WeatherDisplay:10.37,2013-02-09 22:51:00,
2013-02-09 17:52:00,28.6,1.7,29.29,SSE,158,3.5,3.5,31,0.00,CLR,,0.00,WeatherDisplay:10.37,2013-02-09 22:52:00,
2013-02-09 17:56:00,28.2,1.4,29.29,SSE,158,3.5,3.5,31,0.00,CLR,,0.00,WeatherDisplay:10.37,2013-02-09 22:56:00,
2013-02-09 17:57:00,28.0,1.2,29.29,SSE,158,3.5,3.5,31,0.00,CLR,,0.00,WeatherDisplay:10.37,2013-02-09 22:57:00,
2013-02-09 18:01:00,27.9,1.1,29.29,SSE,158,3.5,3.5,31,0.00,CLR,,0.00,WeatherDisplay:10.37,2013-02-09 23:01:00,
2013-02-09 18:02:00,27.7,0.9,29.29,ESE,112,3.5,0.0,31,0.00,CLR,,0.00,WeatherDisplay:10.37,2013-02-09 23:02:00,
2013-02-09 18:06:00,27.5,0.8,29.29,SSE,158,0.0,0.0,31,0.00,CLR,,0.00,WeatherDisplay:10.37,2013-02-09 23:06:00,
2013-02-09 18:08:00,27.3,1.3,29.29,SSE,158,2.3,2.3,32,0.00,CLR,,0.00,WeatherDisplay:10.37,2013-02-09 23:08:00,
2013-02-09 18:11:00,27.1,1.1,29.29,SSE,158,1.1,1.6,32,0.00,CLR,,0.00,WeatherDisplay:10.37,2013-02-09 23:11:00,
2013-02-09 18:13:00,27.1,1.1,29.29,SW,225,3.6,3.6,32,0.00,CLR,,0.00,WeatherDisplay:10.37,2013-02-09 23:13:00,
2013-02-09 18:16:00,27.0,1.0,29.29,SSE,158,3.5,3.5,32,0.00,CLR,,0.00,WeatherDisplay:10.37,2013-02-09 23:16:00,
2013-02-09 18:18:00,27.0,1.0,29.29,SSE,158,3.5,3.5,32,0.00,CLR,,0.00,WeatherDisplay:10.37,2013-02-09 23:18:00,
2013-02-09 18:21:00,26.6,1.3,29.29,ENE,68,3.5,3.5,33,0.00,CLR,,0.00,WeatherDisplay:10.37,2013-02-09 23:21:00,
2013-02-09 18:23:00,26.6,2.0,29.29,ESE,112,4.6,4.6,34,0.00,CLR,,0.00,WeatherDisplay:10.37,2013-02-09 23:23:00,
2013-02-09 18:26:00,26.4,1.8,29.29,SSE,158,3.5,3.5,34,0.00,CLR,,0.00,WeatherDisplay:10.37,2013-02-09 23:26:00,
2013-02-09 18:28:00,26.2,1.6,29.29,SSE,158,3.5,3.5,34,0.00,CLR,,0.00,WeatherDisplay:10.37,2013-02-09 23:28:00,
2013-02-09 18:31:00,26.1,1.5,29.29,NE,45,4.0,0.0,34,0.00,CLR,,0.00,WeatherDisplay:10.37,2013-02-09 23:31:00,
2013-02-09 18:33:00,26.1,1.5,29.29,SSW,202,3.5,3.5,34,0.00,CLR,,0.00,WeatherDisplay:10.37,2013-02-09 23:33:00,
2013-02-09 18:36:00,26.1,2.1,29.29,SSE,158,5.8,5.8,35,0.00,CLR,,0.00,WeatherDisplay:10.37,2013-02-09 23:36:00,
2013-02-09 18:37:00,26.1,2.1,29.29,SSE,158,3.5,3.5,35,0.00,CLR,,0.00,WeatherDisplay:10.37,2013-02-09 23:37:00,
2013-02-09 18:38:00,25.9,1.9,29.29,SSE,158,2.9,2.9,35,0.00,CLR,,0.00,WeatherDisplay:10.37,2013-02-09 23:38:00,
2013-02-09 18:41:00,25.9,2.5,29.29,SSE,158,4.6,4.6,36,0.00,CLR,,0.00,WeatherDisplay:10.37,2013-02-09 23:41:00,
2013-02-09 18:42:00,25.9,2.5,29.29,SSE,158,2.6,2.6,36,0.00,CLR,,0.00,WeatherDisplay:10.37,2013-02-09 23:42:00,
2013-02-09 18:43:00,25.9,2.5,29.29,SSE,158,5.4,5.4,36,0.00,CLR,,0.00,WeatherDisplay:10.37,2013-02-09 23:43:00,
2013-02-09 18:46:00,25.5,2.2,29.29,SSE,158,0.0,0.0,36,0.00,CLR,,0.00,WeatherDisplay:10.37,2013-02-09 23:46:00,
2013-02-09 18:47:00,25.5,2.2,29.29,ESE,112,4.3,0.0,36,0.00,CLR,,0.00,WeatherDisplay:10.37,2013-02-09 23:47:00,
2013-02-09 18:48:00,25.5,2.2,29.29,SSE,158,4.6,4.6,36,0.00,CLR,,0.00,WeatherDisplay:10.37,2013-02-09 23:48:00,
2013-02-09 18:51:00,25.3,2.7,29.29,SSE,158,5.8,5.8,37,0.00,CLR,,0.00,WeatherDisplay:10.37,2013-02-09 23:51:00,
2013-02-09 18:52:00,25.3,2.7,29.29,SSE,158,5.8,5.8,37,0.00,CLR,,0.00,WeatherDisplay:10.37,2013-02-09 23:52:00,
2013-02-09 18:53:00,25.3,2.7,29.29,North,0,2.6,0.0,37,0.00,CLR,,0.00,WeatherDisplay:10.37,2013-02-09 23:53:00,
2013-02-09 18:56:00,25.2,2.5,29.29,SSE,158,4.9,4.9,37,0.00,CLR,,0.00,WeatherDisplay:10.37,2013-02-09 23:56:00,
2013-02-09 18:57:00,25.2,2.5,29.29,WSW,248,4.6,4.6,37,0.00,CLR,,0.00,WeatherDisplay:10.37,2013-02-09 23:57:00,
2013-02-09 18:58:00,25.2,3.1,29.29,SSE,158,4.6,4.6,38,0.00,CLR,,0.00,WeatherDisplay:10.37,2013-02-09 23:58:00,
2013-02-09 19:01:00,25.2,3.1,29.29,SSE,158,5.8,5.8,38,0.00,CLR,,0.00,WeatherDisplay:10.37,2013-02-10 00:01:00,
2013-02-09 19:02:00,25.2,3.1,29.29,SSE,158,5.8,5.8,38,0.00,CLR,,0.00,WeatherDisplay:10.37,2013-02-10 00:02:00,
2013-02-09 19:03:00,25.0,3.5,29.29,SSE,158,5.8,5.8,39,0.00,CLR,,0.00,WeatherDisplay:10.37,2013-02-10 00:03:00,
2013-02-09 19:04:00,25.0,3.5,29.29,SSW,202,5.8,5.8,39,0.00,CLR,,0.00,WeatherDisplay:10.37,2013-02-10 00:04:00,
2013-02-09 19:06:00,25.0,3.5,29.29,SSE,158,3.5,3.5,39,0.00,CLR,,0.00,WeatherDisplay:10.37,2013-02-10 00:06:00,
2013-02-09 19:07:00,25.0,3.5,29.29,SSW,202,3.5,3.5,39,0.00,CLR,,0.00,WeatherDisplay:10.37,2013-02-10 00:07:00,
2013-02-09 19:08:00,25.0,3.5,29.29,SSE,158,3.5,3.5,39,0.00,CLR,,0.00,WeatherDisplay:10.37,2013-02-10 00:08:00,
2013-02-09 19:09:00,25.0,4.0,29.29,SSE,158,6.0,6.0,40,0.00,CLR,,0.00,WeatherDisplay:10.37,2013-02-10 00:09:00,
2013-02-09 19:11:00,24.6,3.7,29.29,SSE,158,1.1,1.4,40,0.00,CLR,,0.00,WeatherDisplay:10.37,2013-02-10 00:11:00,
2013-02-09 19:12:00,24.6,3.7,29.29,SSW,202,3.1,3.1,40,0.00,CLR,,0.00,WeatherDisplay:10.37,2013-02-10 00:12:00,
2013-02-09 19:13:00,24.6,4.2,29.29,SSW,202,4.6,4.6,41,0.00,CLR,,0.00,WeatherDisplay:10.37,2013-02-10 00:13:00,
2013-02-09 19:14:00,24.6,4.2,29.29,SSW,202,2.3,2.4,41,0.00,CLR,,0.00,WeatherDisplay:10.37,2013-02-10 00:14:00,
2013-02-09 19:16:00,24.4,4.1,29.29,SSE,158,0.0,0.0,41,0.00,CLR,,0.00,WeatherDisplay:10.37,2013-02-10 00:16:00,
2013-02-09 19:17:00,24.4,4.1,29.29,SSE,158,2.2,0.0,41,0.00,CLR,,0.00,WeatherDisplay:10.37,2013-02-10 00:17:00,
2013-02-09 19:18:00,24.4,4.1,29.29,NNE,22,4.6,4.6,41,0.00,CLR,,0.00,WeatherDisplay:10.37,2013-02-10 00:18:00,
2013-02-09 19:19:00,24.4,4.1,29.29,SSE,158,4.6,4.6,41,0.00,CLR,,0.00,WeatherDisplay:10.37,2013-02-10 00:19:00,
2013-02-09 19:21:00,24.4,4.1,29.29,SSE,158,0.9,0.0,41,0.00,CLR,,0.00,WeatherDisplay:10.37,2013-02-10 00:21:00,
2013-02-09 19:22:00,24.4,4.1,29.29,SSE,158,1.1,0.0,41,0.00,CLR,,0.00,WeatherDisplay:10.37,2013-02-10 00:22:00,
2013-02-09 19:24:00,24.3,4.4,29.29,SSE,158,3.5,3.5,42,0.00,CLR,,0.00,WeatherDisplay:10.37,2013-02-10 00:24:00,
2013-02-09 19:26:00,24.3,4.4,29.29,SSE,158,3.1,0.0,42,0.00,CLR,,0.00,WeatherDisplay:10.37,2013-02-10 00:26:00,
2013-02-09 19:27:00,24.3,4.4,29.29,SSE,158,2.3,0.0,42,0.00,CLR,,0.00,WeatherDisplay:10.37,2013-02-10 00:27:00,
2013-02-09 19:29:00,24.3,4.4,29.29,SSE,158,2.9,2.9,42,0.00,CLR,,0.00,WeatherDisplay:10.37,2013-02-10 00:29:00,
2013-02-09 19:31:00,24.3,4.4,29.29,SSE,158,3.5,3.5,42,0.00,CLR,,0.00,WeatherDisplay:10.37,2013-02-10 00:31:00,
2013-02-09 19:32:00,24.3,4.4,29.29,SSE,158,3.5,3.5,42,0.00,CLR,,0.00,WeatherDisplay:10.37,2013-02-10 00:32:00,
2013-02-09 19:34:00,24.3,4.4,29.29,WSW,248,4.6,4.6,42,0.00,CLR,,0.00,WeatherDisplay:10.37,2013-02-10 00:34:00,
2013-02-09 19:35:00,24.3,4.4,29.29,SSE,158,4.6,0.0,42,0.00,CLR,,0.00,WeatherDisplay:10.37,2013-02-10 00:35:00,
2013-02-09 19:36:00,24.1,4.3,29.29,SSE,158,2.9,0.0,42,0.00,CLR,,0.00,WeatherDisplay:10.37,2013-02-10 00:36:00,
2013-02-09 19:37:00,24.1,4.3,29.29,SSE,158,2.6,2.6,42,0.00,CLR,,0.00,WeatherDisplay:10.37,2013-02-10 00:37:00,
2013-02-09 19:39:00,24.1,4.3,29.29,SSE,158,2.3,2.3,42,0.00,CLR,,0.00,WeatherDisplay:10.37,2013-02-10 00:39:00,
2013-02-09 19:40:00,24.1,4.3,29.29,SSE,158,0.0,0.0,42,0.00,CLR,,0.00,WeatherDisplay:10.37,2013-02-10 00:40:00,
2013-02-09 19:42:00,23.9,4.1,29.29,SSE,158,3.5,3.5,42,0.00,CLR,,0.00,WeatherDisplay:10.37,2013-02-10 00:42:00,
2013-02-09 19:44:00,23.9,4.6,29.29,SSE,158,2.9,0.0,43,0.00,CLR,,0.00,WeatherDisplay:10.37,2013-02-10 00:44:00,
2013-02-09 19:45:00,23.9,4.6,29.29,NE,45,2.9,2.9,43,0.00,CLR,,0.00,WeatherDisplay:10.37,2013-02-10 00:45:00,
2013-02-09 19:47:00,23.9,4.6,29.29,South,180,4.9,4.9,43,0.00,CLR,,0.00,WeatherDisplay:10.37,2013-02-10 00:47:00,
2013-02-09 19:49:00,23.7,4.5,29.29,SSE,158,5.8,5.8,43,0.00,CLR,,0.00,WeatherDisplay:10.37,2013-02-10 00:49:00,
2013-02-09 19:50:00,23.7,4.5,29.29,SSE,158,3.5,3.5,43,0.00,CLR,,0.00,WeatherDisplay:10.37,2013-02-10 00:50:00,
2013-02-09 19:52:00,23.7,4.5,29.29,SSE,158,3.5,3.5,43,0.00,CLR,,0.00,WeatherDisplay:10.37,2013-02-10 00:52:00,
2013-02-09 19:54:00,23.7,4.5,29.29,SSE,158,4.6,4.6,43,0.00,CLR,,0.00,WeatherDisplay:10.37,2013-02-10 00:54:00,
2013-02-09 19:55:00,23.7,4.5,29.29,SSW,202,3.5,3.5,43,0.00,CLR,,0.00,WeatherDisplay:10.37,2013-02-10 00:55:00,
2013-02-09 19:57:00,23.7,4.5,29.29,SSE,158,3.5,3.5,43,0.00,CLR,,0.00,WeatherDisplay:10.37,2013-02-10 00:57:00,
2013-02-09 19:59:00,23.7,4.5,29.29,SSE,158,3.5,3.5,43,0.00,CLR,,0.00,WeatherDisplay:10.37,2013-02-10 00:59:00,
2013-02-09 20:00:00,23.7,4.5,29.26,SSE,158,4.0,4.0,43,0.00,CLR,,0.00,WeatherDisplay:10.37,2013-02-10 01:00:00,
2013-02-09 20:02:00,23.7,4.5,29.26,SSE,158,4.6,4.6,43,0.00,CLR,,0.00,WeatherDisplay:10.37,2013-02-10 01:02:00,
2013-02-09 20:04:00,23.5,4.3,29.26,ESE,112,3.5,3.5,43,0.00,CLR,,0.00,WeatherDisplay:10.37,2013-02-10 01:04:00,
2013-02-09 20:06:00,23.5,4.8,29.26,SSE,158,3.5,3.5,44,0.00,CLR,,0.00,WeatherDisplay:10.37,2013-02-10 01:06:00,
2013-02-09 20:07:00,23.5,4.8,29.26,SSE,158,3.5,3.5,44,0.00,CLR,,0.00,WeatherDisplay:10.37,2013-02-10 01:07:00,
2013-02-09 20:08:00,23.5,4.8,29.26,SSW,202,2.0,0.0,44,0.00,CLR,,0.00,WeatherDisplay:10.37,2013-02-10 01:08:00,
2013-02-09 20:10:00,23.5,4.8,29.26,SSE,158,4.6,4.6,44,0.00,CLR,,0.00,WeatherDisplay:10.37,2013-02-10 01:10:00,
2013-02-09 20:11:00,23.5,4.8,29.26,SSE,158,2.6,2.6,44,0.00,CLR,,0.00,WeatherDisplay:10.37,2013-02-10 01:11:00,
2013-02-09 20:12:00,23.5,4.8,29.26,SSE,158,2.3,2.3,44,0.00,CLR,,0.00,WeatherDisplay:10.37,2013-02-10 01:12:00,
2013-02-09 20:13:00,23.5,4.8,29.26,SSE,158,2.3,2.3,44,0.00,CLR,,0.00,WeatherDisplay:10.37,2013-02-10 01:13:00,
2013-02-09 20:15:00,23.5,4.8,29.29,SSE,158,4.6,4.6,44,0.00,CLR,,0.00,WeatherDisplay:10.37,2013-02-10 01:15:00,
2013-02-09 20:16:00,23.5,4.8,29.29,ESE,112,4.6,4.6,44,0.00,CLR,,0.00,WeatherDisplay:10.37,2013-02-10 01:16:00,
2013-02-09 20:17:00,23.4,4.6,29.29,ESE,112,3.5,3.5,44,0.00,CLR,,0.00,WeatherDisplay:10.37,2013-02-10 01:17:00,
2013-02-09 20:18:00,23.4,4.6,29.29,ESE,112,0.0,2.6,44,0.00,CLR,,0.00,WeatherDisplay:10.37,2013-02-10 01:18:00,
2013-02-09 20:20:00,23.4,4.6,29.29,ENE,68,3.1,3.8,44,0.00,CLR,,0.00,WeatherDisplay:10.37,2013-02-10 01:20:00,
2013-02-09 20:21:00,23.4,4.6,29.29,SSE,158,5.8,5.8,44,0.00,CLR,,0.00,WeatherDisplay:10.37,2013-02-10 01:21:00,
2013-02-09 20:22:00,23.4,4.6,29.29,SSE,158,3.5,3.5,44,0.00,CLR,,0.00,WeatherDisplay:10.37,2013-02-10 01:22:00,
2013-02-09 20:23:00,23.4,5.1,29.29,SSE,158,3.8,3.8,45,0.00,CLR,,0.00,WeatherDisplay:10.37,2013-02-10 01:23:00,
2013-02-09 20:25:00,23.4,5.1,29.29,SSE,158,4.0,4.0,45,0.00,CLR,,0.00,WeatherDisplay:10.37,2013-02-10 01:25:00,
2013-02-09 20:26:00,23.4,5.1,29.29,SSE,158,4.6,4.6,45,0.00,CLR,,0.00,WeatherDisplay:10.37,2013-02-10 01:26:00,
2013-02-09 20:27:00,23.4,5.1,29.29,SSW,202,4.6,4.6,45,0.00,CLR,,0.00,WeatherDisplay:10.37,2013-02-10 01:27:00,
2013-02-09 20:28:00,23.2,4.9,29.29,SSW,202,2.3,2.3,45,0.00,CLR,,0.00,WeatherDisplay:10.37,2013-02-10 01:28:00,
2013-02-09 20:30:00,23.2,4.9,29.29,SSW,202,0.0,2.0,45,0.00,CLR,,0.00,WeatherDisplay:10.37,2013-02-10 01:30:00,
2013-02-09 20:31:00,23.0,4.8,29.29,SSW,202,0.0,2.0,45,0.00,CLR,,0.00,WeatherDisplay:10.37,2013-02-10 01:31:00,
2013-02-09 20:32:00,23.0,4.8,29.29,SSW,202,0.0,2.0,45,0.00,CLR,,0.00,WeatherDisplay:10.37,2013-02-10 01:32:00,
2013-02-09 20:33:00,23.0,4.8,29.29,SSW,202,0.0,2.0,45,0.00,CLR,,0.00,WeatherDisplay:10.37,2013-02-10 01:33:00,
2013-02-09 20:35:00,23.0,4.8,29.29,ENE,68,3.6,3.6,45,0.00,CLR,,0.00,WeatherDisplay:10.37,2013-02-10 01:35:00,
2013-02-09 20:36:00,23.0,4.8,29.29,SW,225,3.5,3.5,45,0.00,CLR,,0.00,WeatherDisplay:10.37,2013-02-10 01:36:00,
2013-02-09 20:37:00,22.8,4.6,29.29,ESE,112,2.3,2.3,45,0.00,CLR,,0.00,WeatherDisplay:10.37,2013-02-10 01:37:00,
2013-02-09 20:39:00,22.8,4.6,29.29,SSE,158,2.0,0.0,45,0.00,CLR,,0.00,WeatherDisplay:10.37,2013-02-10 01:39:00,
2013-02-09 20:40:00,22.8,4.6,29.29,ESE,112,2.4,0.0,45,0.00,CLR,,0.00,WeatherDisplay:10.37,2013-02-10 01:40:00,
2013-02-09 20:41:00,22.8,4.6,29.29,SSE,158,3.5,3.5,45,0.00,CLR,,0.00,WeatherDisplay:10.37,2013-02-10 01:41:00,
2013-02-09 20:42:00,22.8,5.1,29.29,ENE,68,3.5,3.5,46,0.00,CLR,,0.00,WeatherDisplay:10.37,2013-02-10 01:42:00,
2013-02-09 20:44:00,22.8,5.1,29.29,WNW,292,3.5,3.5,46,0.00,CLR,,0.00,WeatherDisplay:10.37,2013-02-10 01:44:00,
2013-02-09 20:45:00,22.8,5.1,29.26,SSE,158,0.0,0.0,46,0.00,CLR,,0.00,WeatherDisplay:10.37,2013-02-10 01:45:00,
2013-02-09 20:46:00,22.8,5.1,29.26,SSE,158,2.3,2.3,46,0.00,CLR,,0.00,WeatherDisplay:10.37,2013-02-10 01:46:00,
2013-02-09 20:47:00,22.8,5.1,29.26,SSE,158,1.1,0.0,46,0.00,CLR,,0.00,WeatherDisplay:10.37,2013-02-10 01:47:00,
2013-02-09 20:49:00,22.6,4.9,29.26,SSW,202,5.8,5.8,46,0.00,CLR,,0.00,WeatherDisplay:10.37,2013-02-10 01:49:00,
2013-02-09 20:50:00,22.5,4.8,29.26,SSE,158,2.3,2.3,46,0.00,CLR,,0.00,WeatherDisplay:10.37,2013-02-10 01:50:00,
2013-02-09 20:51:00,22.5,4.8,29.26,SSE,158,1.1,0.0,46,0.00,CLR,,0.00,WeatherDisplay:10.37,2013-02-10 01:51:00,
2013-02-09 20:52:00,22.5,4.8,29.26,ESE,112,4.6,4.6,46,0.00,CLR,,0.00,WeatherDisplay:10.37,2013-02-10 01:52:00,
2013-02-09 20:54:00,22.5,4.8,29.26,SSE,158,4.6,4.6,46,0.00,CLR,,0.00,WeatherDisplay:10.37,2013-02-10 01:54:00,
2013-02-09 20:56:00,22.5,4.8,29.26,SSE,158,3.5,3.5,46,0.00,CLR,,0.00,WeatherDisplay:10.37,2013-02-10 01:56:00,
2013-02-09 20:57:00,22.5,4.8,29.26,ESE,112,6.9,6.9,46,0.00,CLR,,0.00,WeatherDisplay:10.37,2013-02-10 01:57:00,
2013-02-09 20:59:00,22.3,5.1,29.26,SSW,202,3.5,3.5,47,0.00,CLR,,0.00,WeatherDisplay:10.37,2013-02-10 01:59:00,
2013-02-09 21:01:00,22.3,5.1,29.26,SSW,202,3.8,3.8,47,0.00,CLR,,0.00,WeatherDisplay:10.37,2013-02-10 02:01:00,
2013-02-09 21:02:00,22.1,4.9,29.26,WSW,248,3.5,3.5,47,0.00,CLR,,0.00,WeatherDisplay:10.37,2013-02-10 02:02:00,
2013-02-09 21:03:00,22.1,4.9,29.26,SSE,158,3.5,3.5,47,0.00,CLR,,0.00,WeatherDisplay:10.37,2013-02-10 02:03:00,
2013-02-09 21:04:00,22.1,4.9,29.26,SSE,158,3.1,3.1,47,0.00,CLR,,0.00,WeatherDisplay:10.37,2013-02-10 02:04:00,
2013-02-09 21:06:00,22.1,4.9,29.26,North,0,3.5,3.5,47,0.00,CLR,,0.00,WeatherDisplay:10.37,2013-02-10 02:06:00,
2013-02-09 21:07:00,22.1,4.9,29.26,SSW,202,4.7,4.7,47,0.00,CLR,,0.00,WeatherDisplay:10.37,2013-02-10 02:07:00,
2013-02-09 21:08:00,22.1,4.9,29.26,SSW,202,4.6,4.6,47,0.00,CLR,,0.00,WeatherDisplay:10.37,2013-02-10 02:08:00,
2013-02-09 21:10:00,21.9,5.2,29.26,SSE,158,3.1,3.1,48,0.00,CLR,,0.00,WeatherDisplay:10.37,2013-02-10 02:10:00,
2013-02-09 21:11:00,21.9,5.2,29.26,SSE,158,3.5,3.5,48,0.00,CLR,,0.00,WeatherDisplay:10.37,2013-02-10 02:11:00,
2013-02-09 21:12:00,21.9,5.2,29.26,SSE,158,3.6,3.6,48,0.00,CLR,,0.00,WeatherDisplay:10.37,2013-02-10 02:12:00,
2013-02-09 21:13:00,21.9,5.2,29.26,SSE,158,6.9,6.9,48,0.00,CLR,,0.00,WeatherDisplay:10.37,2013-02-10 02:13:00,
2013-02-09 21:15:00,21.9,5.2,29.26,ESE,112,6.2,0.0,48,0.00,CLR,,0.00,WeatherDisplay:10.37,2013-02-10 02:15:00,
2013-02-09 21:16:00,21.9,5.2,29.26,SSE,158,5.8,5.8,48,0.00,CLR,,0.00,WeatherDisplay:10.37,2013-02-10 02:16:00,
2013-02-09 21:17:00,21.9,5.2,29.26,SSE,158,3.5,3.5,48,0.00,CLR,,0.00,WeatherDisplay:10.37,2013-02-10 02:17:00,
2013-02-09 21:18:00,21.9,5.2,29.26,SSE,158,5.8,5.8,48,0.00,CLR,,0.00,WeatherDisplay:10.37,2013-02-10 02:18:00,
2013-02-09 21:20:00,21.7,5.0,29.26,SSE,158,4.6,4.6,48,0.00,CLR,,0.00,WeatherDisplay:10.37,2013-02-10 02:20:00,
2013-02-09 21:21:00,21.7,5.0,29.26,NNE,22,5.9,5.9,48,0.00,CLR,,0.00,WeatherDisplay:10.37,2013-02-10 02:21:00,
2013-02-09 21:22:00,21.7,5.0,29.26,SSE,158,8.1,8.1,48,0.00,CLR,,0.00,WeatherDisplay:10.37,2013-02-10 02:22:00,
2013-02-09 21:23:00,21.7,5.0,29.26,ESE,112,8.1,8.1,48,0.00,CLR,,0.00,WeatherDisplay:10.37,2013-02-10 02:23:00,
2013-02-09 21:25:00,21.7,5.5,29.26,SSE,158,2.3,2.3,49,0.00,CLR,,0.00,WeatherDisplay:10.37,2013-02-10 02:25:00,
2013-02-09 21:26:00,21.6,5.3,29.26,SSE,158,3.3,3.3,49,0.00,CLR,,0.00,WeatherDisplay:10.37,2013-02-10 02:26:00,
2013-02-09 21:28:00,21.6,5.3,29.26,SSW,202,3.5,3.5,49,0.00,CLR,,0.00,WeatherDisplay:10.37,2013-02-10 02:28:00,
2013-02-09 21:30:00,21.6,5.3,29.26,SSE,158,4.6,4.6,49,0.00,CLR,,0.00,WeatherDisplay:10.37,2013-02-10 02:30:00,
2013-02-09 21:31:00,21.6,5.3,29.26,SSW,202,5.8,5.8,49,0.00,CLR,,0.00,WeatherDisplay:10.37,2013-02-10 02:31:00,
2013-02-09 21:33:00,21.6,5.3,29.26,SSE,158,4.3,4.3,49,0.00,CLR,,0.00,WeatherDisplay:10.37,2013-02-10 02:33:00,
2013-02-09 21:35:00,21.6,5.8,29.26,SSE,158,5.8,5.8,50,0.00,CLR,,0.00,WeatherDisplay:10.37,2013-02-10 02:35:00,
2013-02-09 21:36:00,21.6,5.8,29.26,SSE,158,3.5,3.5,50,0.00,CLR,,0.00,WeatherDisplay:10.37,2013-02-10 02:36:00,
2013-02-09 21:38:00,21.6,5.8,29.26,SSE,158,2.9,2.9,50,0.00,CLR,,0.00,WeatherDisplay:10.37,2013-02-10 02:38:00,
2013-02-09 21:40:00,21.4,6.0,29.26,SSE,158,4.6,4.6,51,0.00,CLR,,0.00,WeatherDisplay:10.37,2013-02-10 02:40:00,
2013-02-09 21:41:00,21.4,6.0,29.26,SSE,158,4.6,4.6,51,0.00,CLR,,0.00,WeatherDisplay:10.37,2013-02-10 02:41:00,
2013-02-09 21:43:00,21.4,6.0,29.26,SSW,202,3.5,3.5,51,0.00,CLR,,0.00,WeatherDisplay:10.37,2013-02-10 02:43:00,
2013-02-09 21:45:00,21.4,6.0,29.26,SSE,158,5.9,5.9,51,0.00,CLR,,0.00,WeatherDisplay:10.37,2013-02-10 02:45:00,
2013-02-09 21:46:00,21.2,6.3,29.26,ESE,112,6.2,6.2,52,0.00,CLR,,0.00,WeatherDisplay:10.37,2013-02-10 02:46:00,
2013-02-09 21:48:00,21.2,6.3,29.26,SSE,158,5.8,5.8,52,0.00,CLR,,0.00,WeatherDisplay:10.37,2013-02-10 02:48:00,
2013-02-09 21:50:00,21.2,6.3,29.26,SSE,158,4.6,4.6,52,0.00,CLR,,0.00,WeatherDisplay:10.37,2013-02-10 02:50:00,
2013-02-09 21:52:00,21.2,6.3,29.26,SSW,202,2.6,2.6,52,0.00,CLR,,0.00,WeatherDisplay:10.37,2013-02-10 02:52:00,
2013-02-09 21:53:00,21.2,6.7,29.26,WNW,292,3.3,3.3,53,0.00,CLR,,0.00,WeatherDisplay:10.37,2013-02-10 02:53:00,
2013-02-09 21:54:00,21.2,6.7,29.26,SSE,158,3.5,3.5,53,0.00,CLR,,0.00,WeatherDisplay:10.37,2013-02-10 02:54:00,
2013-02-09 21:55:00,21.2,6.7,29.26,SSE,158,4.6,4.6,53,0.00,CLR,,0.00,WeatherDisplay:10.37,2013-02-10 02:55:00,
2013-02-09 21:57:00,21.2,6.7,29.26,SSE,158,5.8,5.8,53,0.00,CLR,,0.00,WeatherDisplay:10.37,2013-02-10 02:57:00,
2013-02-09 21:58:00,21.2,6.7,29.26,ESE,112,4.6,4.6,53,0.00,CLR,,0.00,WeatherDisplay:10.37,2013-02-10 02:58:00,
2013-02-09 21:59:00,21.2,6.7,29.26,SSE,158,6.4,6.4,53,0.00,CLR,,0.00,WeatherDisplay:10.37,2013-02-10 02:59:00,
2013-02-09 22:00:00,21.2,6.7,29.26,SSE,158,3.5,3.5,53,0.00,CLR,,0.00,WeatherDisplay:10.37,2013-02-10 03:00:00,
2013-02-09 22:02:00,21.2,6.7,29.26,NNW,338,5.9,5.9,53,0.00,CLR,,0.00,WeatherDisplay:10.37,2013-02-10 03:02:00,
2013-02-09 22:03:00,21.0,7.0,29.26,SSE,158,5.8,5.8,54,0.00,CLR,,0.00,WeatherDisplay:10.37,2013-02-10 03:03:00,
2013-02-09 22:04:00,21.0,7.0,29.26,SSE,158,5.8,5.8,54,0.00,CLR,,0.00,WeatherDisplay:10.37,2013-02-10 03:04:00,
2013-02-09 22:05:00,21.0,7.0,29.26,SSE,158,4.6,4.6,54,0.00,CLR,,0.00,WeatherDisplay:10.37,2013-02-10 03:05:00,
2013-02-09 22:07:00,20.8,6.8,29.26,NNE,22,4.6,4.6,54,0.00,CLR,,0.00,WeatherDisplay:10.37,2013-02-10 03:07:00,
2013-02-09 22:08:00,20.8,6.8,29.26,SSE,158,4.6,4.6,54,0.00,CLR,,0.00,WeatherDisplay:10.37,2013-02-10 03:08:00,
2013-02-09 22:09:00,20.8,6.8,29.26,SSE,158,3.5,3.5,54,0.00,CLR,,0.00,WeatherDisplay:10.37,2013-02-10 03:09:00,
2013-02-09 22:10:00,20.8,6.8,29.26,ESE,112,6.9,6.9,54,0.00,CLR,,0.00,WeatherDisplay:10.37,2013-02-10 03:10:00,
2013-02-09 22:12:00,20.8,6.8,29.26,SSW,202,4.6,4.6,54,0.00,CLR,,0.00,WeatherDisplay:10.37,2013-02-10 03:12:00,
2013-02-09 22:13:00,20.8,6.8,29.26,SSE,158,4.6,4.6,54,0.00,CLR,,0.00,WeatherDisplay:10.37,2013-02-10 03:13:00,
2013-02-09 22:14:00,20.8,6.8,29.26,SSE,158,5.8,5.8,54,0.00,CLR,,0.00,WeatherDisplay:10.37,2013-02-10 03:14:00,
2013-02-09 22:16:00,20.8,6.8,29.24,SSW,202,3.5,3.5,54,0.00,CLR,,0.00,WeatherDisplay:10.37,2013-02-10 03:16:00,
2013-02-09 22:17:00,20.8,6.8,29.24,SSE,158,3.6,3.6,54,0.00,CLR,,0.00,WeatherDisplay:10.37,2013-02-10 03:17:00,
2013-02-09 22:18:00,20.8,6.8,29.24,SSE,158,4.0,4.0,54,0.00,CLR,,0.00,WeatherDisplay:10.37,2013-02-10 03:18:00,
2013-02-09 22:19:00,20.8,6.8,29.24,SSE,158,4.6,4.6,54,0.00,CLR,,0.00,WeatherDisplay:10.37,2013-02-10 03:19:00,
2013-02-09 22:21:00,20.8,6.8,29.24,SSE,158,3.5,3.5,54,0.00,CLR,,0.00,WeatherDisplay:10.37,2013-02-10 03:21:00,
2013-02-09 22:22:00,20.5,6.9,29.24,SSE,158,5.8,5.8,55,0.00,CLR,,0.00,WeatherDisplay:10.37,2013-02-10 03:22:00,
2013-02-09 22:23:00,20.5,6.9,29.24,SSE,158,5.8,5.8,55,0.00,CLR,,0.00,WeatherDisplay:10.37,2013-02-10 03:23:00,
2013-02-09 22:24:00,20.5,6.9,29.24,SSE,158,4.6,4.6,55,0.00,CLR,,0.00,WeatherDisplay:10.37,2013-02-10 03:24:00,
2013-02-09 22:26:00,20.3,6.7,29.24,SSE,158,3.5,3.5,55,0.00,CLR,,0.00,WeatherDisplay:10.37,2013-02-10 03:26:00,
2013-02-09 22:27:00,20.3,6.7,29.24,SSE,158,4.6,4.6,55,0.00,CLR,,0.00,WeatherDisplay:10.37,2013-02-10 03:27:00,
2013-02-09 22:28:00,20.3,6.7,29.24,SSE,158,4.6,4.6,55,0.00,CLR,,0.00,WeatherDisplay:10.37,2013-02-10 03:28:00,
2013-02-09 22:29:00,20.3,6.7,29.24,NNE,22,4.7,4.7,55,0.00,CLR,,0.00,WeatherDisplay:10.37,2013-02-10 03:29:00,
2013-02-09 22:31:00,20.3,6.7,29.26,SSE,158,3.1,3.1,55,0.00,CLR,,0.00,WeatherDisplay:10.37,2013-02-10 03:31:00,
2013-02-09 22:32:00,20.3,6.7,29.26,SSE,158,4.6,4.6,55,0.00,CLR,,0.00,WeatherDisplay:10.37,2013-02-10 03:32:00,
2013-02-09 22:33:00,20.3,6.7,29.26,SSE,158,2.3,0.0,55,0.00,CLR,,0.00,WeatherDisplay:10.37,2013-02-10 03:33:00,
2013-02-09 22:34:00,20.3,6.7,29.26,SSW,202,2.3,0.0,55,0.00,CLR,,0.00,WeatherDisplay:10.37,2013-02-10 03:34:00,
2013-02-09 22:36:00,20.1,6.5,29.26,SSE,158,2.6,2.6,55,0.00,CLR,,0.00,WeatherDisplay:10.37,2013-02-10 03:36:00,
2013-02-09 22:37:00,20.1,6.5,29.26,WSW,248,5.8,5.8,55,0.00,CLR,,0.00,WeatherDisplay:10.37,2013-02-10 03:37:00,
2013-02-09 22:38:00,20.1,6.5,29.26,SSE,158,5.8,5.8,55,0.00,CLR,,0.00,WeatherDisplay:10.37,2013-02-10 03:38:00,
2013-02-09 22:39:00,20.1,6.5,29.26,SSE,158,2.3,2.3,55,0.00,CLR,,0.00,WeatherDisplay:10.37,2013-02-10 03:39:00,
2013-02-09 22:41:00,20.1,6.5,29.26,NNW,338,5.8,5.8,55,0.00,CLR,,0.00,WeatherDisplay:10.37,2013-02-10 03:41:00,
2013-02-09 22:42:00,20.1,6.5,29.26,SSE,158,4.6,4.6,55,0.00,CLR,,0.00,WeatherDisplay:10.37,2013-02-10 03:42:00,
2013-02-09 22:43:00,20.1,6.5,29.26,SSE,158,4.6,4.6,55,0.00,CLR,,0.00,WeatherDisplay:10.37,2013-02-10 03:43:00,
2013-02-09 22:44:00,19.9,6.3,29.26,SSE,158,2.3,2.3,55,0.00,CLR,,0.00,WeatherDisplay:10.37,2013-02-10 03:44:00,
2013-02-09 22:46:00,19.9,6.3,29.26,SSW,202,3.5,3.5,55,0.00,CLR,,0.00,WeatherDisplay:10.37,2013-02-10 03:46:00,
2013-02-09 22:47:00,19.9,6.3,29.26,SSE,158,4.6,4.6,55,0.00,CLR,,0.00,WeatherDisplay:10.37,2013-02-10 03:47:00,
2013-02-09 22:48:00,19.9,6.7,29.26,SSE,158,1.1,0.0,56,0.00,CLR,,0.00,WeatherDisplay:10.37,2013-02-10 03:48:00,
2013-02-09 22:49:00,19.9,6.7,29.26,SSE,158,5.4,0.0,56,0.00,CLR,,0.00,WeatherDisplay:10.37,2013-02-10 03:49:00,
2013-02-09 22:51:00,19.8,6.6,29.26,SSE,158,5.8,5.8,56,0.00,CLR,,0.00,WeatherDisplay:10.37,2013-02-10 03:51:00,
2013-02-09 22:52:00,19.8,6.6,29.26,SSW,202,2.3,2.3,56,0.00,CLR,,0.00,WeatherDisplay:10.37,2013-02-10 03:52:00,
2013-02-09 22:53:00,19.8,6.6,29.26,North,0,3.5,3.5,56,0.00,CLR,,0.00,WeatherDisplay:10.37,2013-02-10 03:53:00,
2013-02-09 22:54:00,19.8,6.6,29.26,SSE,158,3.5,0.0,56,0.00,CLR,,0.00,WeatherDisplay:10.37,2013-02-10 03:54:00,
2013-02-09 22:56:00,19.8,6.6,29.26,SSE,158,2.9,2.9,56,0.00,CLR,,0.00,WeatherDisplay:10.37,2013-02-10 03:56:00,
2013-02-09 22:57:00,19.8,6.6,29.26,SSE,158,3.5,3.5,56,0.00,CLR,,0.00,WeatherDisplay:10.37,2013-02-10 03:57:00,
2013-02-09 22:59:00,19.8,6.6,29.26,SSE,158,2.9,2.9,56,0.00,CLR,,0.00,WeatherDisplay:10.37,2013-02-10 03:59:00,
2013-02-09 23:01:00,19.8,6.6,29.24,SSE,158,3.5,3.5,56,0.00,CLR,,0.00,WeatherDisplay:10.37,2013-02-10 04:01:00,
2013-02-09 23:02:00,19.8,6.6,29.24,SSE,158,0.0,0.0,56,0.00,CLR,,0.00,WeatherDisplay:10.37,2013-02-10 04:02:00,
2013-02-09 23:04:00,19.8,6.6,29.24,SSE,158,5.8,5.8,56,0.00,CLR,,0.00,WeatherDisplay:10.37,2013-02-10 04:04:00,
2013-02-09 23:06:00,19.8,6.6,29.24,SSE,158,4.6,4.6,56,0.00,CLR,,0.00,WeatherDisplay:10.37,2013-02-10 04:06:00,
2013-02-09 23:07:00,19.8,6.6,29.24,ESE,112,5.8,5.8,56,0.00,CLR,,0.00,WeatherDisplay:10.37,2013-02-10 04:07:00,
2013-02-09 23:09:00,19.8,6.6,29.24,SSW,202,2.3,2.3,56,0.00,CLR,,0.00,WeatherDisplay:10.37,2013-02-10 04:09:00,
2013-02-09 23:11:00,19.4,6.6,29.24,SSE,158,3.5,3.5,57,0.00,CLR,,0.00,WeatherDisplay:10.37,2013-02-10 04:11:00,
2013-02-09 23:13:00,19.4,6.6,29.24,SSE,158,3.5,3.5,57,0.00,CLR,,0.00,WeatherDisplay:10.37,2013-02-10 04:13:00,
2013-02-09 23:14:00,19.4,6.6,29.24,SSE,156,2.0,6.0,57,0.00,CLR,,0.00,WeatherDisplay:10.37,2013-02-10 04:14:00,
2013-02-09 23:16:00,19.4,6.6,29.24,ESE,112,3.5,3.5,57,0.00,CLR,,0.00,WeatherDisplay:10.37,2013-02-10 04:16:00,
2013-02-09 23:18:00,19.4,7.0,29.24,SSE,158,1.1,1.1,58,0.00,CLR,,0.00,WeatherDisplay:10.37,2013-02-10 04:18:00,
2013-02-09 23:19:00,19.4,7.0,29.24,SSE,157,1.0,3.0,58,0.00,CLR,,0.00,WeatherDisplay:10.37,2013-02-10 04:19:00,
2013-02-09 23:21:00,19.4,7.0,29.24,SSW,202,1.6,1.6,58,0.00,CLR,,0.00,WeatherDisplay:10.37,2013-02-10 04:21:00,
2013-02-09 23:23:00,19.4,7.0,29.24,SSE,158,3.5,0.0,58,0.00,CLR,,0.00,WeatherDisplay:10.37,2013-02-10 04:23:00,
2013-02-09 23:24:00,19.3,6.9,29.24,SSE,152,1.0,3.0,58,0.00,CLR,,0.00,WeatherDisplay:10.37,2013-02-10 04:24:00,
2013-02-09 23:26:00,19.2,6.8,29.24,SSE,158,2.3,0.0,58,0.00,CLR,,0.00,WeatherDisplay:10.37,2013-02-10 04:26:00,
2013-02-09 23:28:00,19.2,6.8,29.24,SSW,202,4.6,4.6,58,0.00,CLR,,0.00,WeatherDisplay:10.37,2013-02-10 04:28:00,
2013-02-09 23:29:00,19.2,6.8,29.24,South,182,2.0,5.0,58,0.00,CLR,,0.00,WeatherDisplay:10.37,2013-02-10 04:29:00,
2013-02-09 23:31:00,19.2,6.8,29.24,ENE,68,1.1,0.0,58,0.00,CLR,,0.00,WeatherDisplay:10.37,2013-02-10 04:31:00,
2013-02-09 23:33:00,19.2,6.8,29.24,SSE,158,2.4,0.0,58,0.00,CLR,,0.00,WeatherDisplay:10.37,2013-02-10 04:33:00,
2013-02-09 23:34:00,19.2,6.8,29.24,SSE,158,2.4,2.4,58,0.00,CLR,,0.00,WeatherDisplay:10.37,2013-02-10 04:34:00,
2013-02-09 23:36:00,19.2,6.8,29.24,SSE,158,3.1,3.1,58,0.00,CLR,,0.00,WeatherDisplay:10.37,2013-02-10 04:36:00,
2013-02-09 23:38:00,19.0,6.7,29.24,SSE,158,3.5,0.0,58,0.00,CLR,,0.00,WeatherDisplay:10.37,2013-02-10 04:38:00,
2013-02-09 23:39:00,19.0,6.7,29.24,SSE,158,2.3,2.3,58,0.00,CLR,,0.00,WeatherDisplay:10.37,2013-02-10 04:39:00,
2013-02-09 23:40:00,19.0,6.7,29.24,SSE,158,2.3,2.3,58,0.00,CLR,,0.00,WeatherDisplay:10.37,2013-02-10 04:40:00,
2013-02-09 23:41:00,19.0,6.7,29.24,SSE,158,3.5,3.5,58,0.00,CLR,,0.00,WeatherDisplay:10.37,2013-02-10 04:41:00,
2013-02-09 23:43:00,19.0,6.7,29.24,SSE,158,3.5,3.5,58,0.00,CLR,,0.00,WeatherDisplay:10.37,2013-02-10 04:43:00,
2013-02-09 23:44:00,19.0,6.7,29.24,SSE,158,1.1,0.0,58,0.00,CLR,,0.00,WeatherDisplay:10.37,2013-02-10 04:44:00,
2013-02-09 23:45:00,19.0,6.7,29.24,SSE,158,1.4,0.0,58,0.00,CLR,,0.00,WeatherDisplay:10.37,2013-02-10 04:45:00,
2013-02-09 23:46:00,19.0,6.7,29.24,SE,135,3.5,3.5,58,0.00,CLR,,0.00,WeatherDisplay:10.37,2013-02-10 04:46:00,
2013-02-09 23:48:00,18.7,6.7,29.24,SSE,158,2.3,0.0,59,0.00,CLR,,0.00,WeatherDisplay:10.37,2013-02-10 04:48:00,
2013-02-09 23:49:00,18.7,6.7,29.24,SSE,158,2.3,0.0,59,0.00,CLR,,0.00,WeatherDisplay:10.37,2013-02-10 04:49:00,
2013-02-09 23:50:00,18.7,6.7,29.24,SSE,158,2.3,0.0,59,0.00,CLR,,0.00,WeatherDisplay:10.37,2013-02-10 04:50:00,
2013-02-09 23:52:00,18.7,6.7,29.24,West,270,2.3,2.3,59,0.00,CLR,,0.00,WeatherDisplay:10.37,2013-02-10 04:52:00,
2013-02-09 23:53:00,18.7,6.7,29.24,SSE,158,4.6,4.6,59,0.00,CLR,,0.00,WeatherDisplay:10.37,2013-02-10 04:53:00,
2013-02-09 23:54:00,18.7,6.7,29.24,West,270,4.6,4.6,59,0.00,CLR,,0.00,WeatherDisplay:10.37,2013-02-10 04:54:00,
2013-02-09 23:55:00,18.7,6.7,29.24,SSE,158,4.6,4.6,59,0.00,CLR,,0.00,WeatherDisplay:10.37,2013-02-10 04:55:00,
2013-02-09 23:58:00,18.7,6.7,29.24,SSE,158,2.2,0.0,59,0.00,CLR,,0.00,WeatherDisplay:10.37,2013-02-10 04:58:00,
2013-02-09 23:59:00,18.7,6.7,29.24,SSW,202,3.1,3.1,59,0.00,CLR,,0.00,WeatherDisplay:10.37,2013-02-10 04:59:00,